Anacostia — WDE5804 — position and weather

sailwx.info

Track history (hours):
 
Tides and Currents Weather Stations Pressure Air Temp Water Temp Dewpoint Dewpoint Depression Visibility Wind Speed Wind Dir Waves Ship Positions

Anacostia

Owner: Vane Line Bunkering, Inc., Philadelphia, PA. More information available from US FCC via Universal Licensing System and Coast Guard Vessel Documentation Center.

Last reported at 2017-Sep-19 20:30 UTC. Time now 2017-Sep-19 20:36 UTC.
Position N 39°52' W 075°13'.

Length 33 m; draft 4.2 m.

Type: Towing. MMSI: 367371820.

Date/timePositionNaut miles runAvg speedWind from/ knotsBaromVisibWave heightAir tempDewpointWater temp
2017-Sep-19 20:30N 39°52' W 075°13'6776.2
2017-Sep-19 20:29N 39°56' W 075°08'611.8
2017-Sep-19 20:00N 39°52' W 075°13'6838.6
2017-Sep-19 19:59N 39°56' W 075°08'611.8
2017-Sep-19 19:30N 39°52' W 075°13'6773.4
2017-Sep-19 19:29N 39°56' W 075°08'611.8
2017-Sep-19 19:00N 39°52' W 075°13'6795.9
2017-Sep-19 18:59N 39°56' W 075°08'612.1
2017-Sep-19 18:30N 39°52' W 075°13'6830.0
2017-Sep-19 18:29N 39°56' W 075°08'612.1
2017-Sep-19 18:00N 39°52' W 075°13'6860.2
2017-Sep-19 17:59N 39°56' W 075°08'612.0
2017-Sep-19 17:30N 39°52' W 075°13'6788.3
2017-Sep-19 17:29N 39°56' W 075°08'611.9
2017-Sep-19 17:00N 39°52' W 075°13'6755.5
2017-Sep-19 16:59N 39°56' W 075°08'611.9
2017-Sep-19 16:30N 39°52' W 075°13'6815.1
2017-Sep-19 16:29N 39°56' W 075°08'611.9
2017-Sep-19 16:00N 39°52' W 075°13'6754.0
2017-Sep-19 15:59N 39°56' W 075°08'611.9
2017-Sep-19 15:30N 39°52' W 075°13'6812.7
2017-Sep-19 15:29N 39°56' W 075°08'612.0
2017-Sep-19 15:00N 39°52' W 075°13'6757.3
2017-Sep-19 14:59N 39°56' W 075°08'612.0
2017-Sep-19 14:30N 39°52' W 075°13'6756.2
2017-Sep-19 14:29N 39°56' W 075°08'612.0
2017-Sep-19 14:00N 39°52' W 075°13'6746.9
2017-Sep-19 13:59N 39°56' W 075°08'611.9
2017-Sep-19 13:30N 39°52' W 075°13'6801.2
2017-Sep-19 13:29N 39°56' W 075°08'611.8
2017-Sep-19 13:00N 39°52' W 075°13'6748.0
2017-Sep-19 12:59N 39°56' W 075°08'611.8
2017-Sep-19 12:30N 39°52' W 075°13'6776.2
2017-Sep-19 12:29N 39°56' W 075°08'611.8
2017-Sep-19 12:00N 39°52' W 075°13'6749.5
2017-Sep-19 11:59N 39°56' W 075°08'611.8
2017-Sep-19 11:30N 39°52' W 075°13'6775.6
2017-Sep-19 11:29N 39°56' W 075°08'611.8
2017-Sep-19 11:00N 39°52' W 075°13'6748.1
2017-Sep-19 10:59N 39°56' W 075°08'0 0.0
2017-Sep-19 10:31N 39°56' W 075°08'6361.2
2017-Sep-19 10:30N 39°52' W 075°13'510.4
2017-Sep-19 10:01N 39°55' W 075°08'5330.6
2017-Sep-19 10:00N 39°52' W 075°13'3 5.7
2017-Sep-19 09:30N 39°53' W 075°10'3205.5
2017-Sep-19 09:30N 39°52' W 075°13'0 0.7
2017-Sep-19 09:00N 39°52' W 075°13'022.2
2017-Sep-19 09:00N 39°52' W 075°13'2 5.1
2017-Sep-19 08:31N 39°51' W 075°16'2144.8
2017-Sep-19 08:30N 39°52' W 075°13'2 5.0
2017-Sep-19 08:01N 39°51' W 075°16'2149.5
2017-Sep-19 08:00N 39°52' W 075°13'2 4.7
2017-Sep-19 07:31N 39°51' W 075°16'2137.4
2017-Sep-19 07:30N 39°52' W 075°13'2 4.1
2017-Sep-19 07:00N 39°54' W 075°12'2136.4
2017-Sep-19 07:00N 39°52' W 075°13'2 4.0
2017-Sep-19 06:30N 39°54' W 075°12'0 1.5
2017-Sep-19 06:28N 39°54' W 075°12'1 2.2
2017-Sep-19 05:59N 39°55' W 075°13'164.5
2017-Sep-19 05:58N 39°54' W 075°12'0 0.1
2017-Sep-19 05:30N 39°54' W 075°12'0 1.3
2017-Sep-19 05:28N 39°54' W 075°12'0 0.1
2017-Sep-19 04:58N 39°54' W 075°12'0101.8
2017-Sep-19 04:58N 39°54' W 075°12'0 0.1
2017-Sep-19 04:28N 39°54' W 075°12'054.2
2017-Sep-19 04:28N 39°54' W 075°12'0 0.1
2017-Sep-19 03:58N 39°54' W 075°12'0108.4
2017-Sep-19 03:58N 39°54' W 075°12'0 0.1
2017-Sep-19 03:28N 39°54' W 075°12'0108.4
2017-Sep-19 03:28N 39°54' W 075°12'0 0.1
2017-Sep-19 02:58N 39°54' W 075°12'054.2
2017-Sep-19 02:58N 39°54' W 075°12'0 0.0
2017-Sep-19 02:28N 39°54' W 075°12'0 0.1
2017-Sep-19 01:58N 39°54' W 075°12'0108.4
2017-Sep-19 01:58N 39°54' W 075°12'0 0.0
2017-Sep-19 01:28N 39°54' W 075°12'0 0.1
2017-Sep-19 00:58N 39°54' W 075°12'054.2
2017-Sep-19 00:58N 39°54' W 075°12'0 0.0
2017-Sep-19 00:28N 39°54' W 075°12'0 0.0
2017-Sep-18 23:58N 39°54' W 075°12'0 0.1
2017-Sep-18 23:28N 39°54' W 075°12'0118.7
2017-Sep-18 23:28N 39°54' W 075°12'0 0.0
2017-Sep-18 22:58N 39°54' W 075°12'0 0.0
2017-Sep-18 22:28N 39°54' W 075°12'0 0.1
2017-Sep-18 21:58N 39°54' W 075°12'0 0.0
2017-Sep-18 21:30N 39°54' W 075°12'0 0.7
2017-Sep-18 21:28N 39°54' W 075°12'0 0.1
2017-Sep-18 21:00N 39°54' W 075°12'0 0.7
2017-Sep-18 20:58N 39°54' W 075°12'0 0.1
2017-Sep-18 20:30N 39°54' W 075°12'0 0.7
2017-Sep-18 20:28N 39°54' W 075°12'0 0.1
2017-Sep-18 20:01N 39°54' W 075°12'0 0.6
2017-Sep-18 19:58N 39°54' W 075°12'0 0.1
2017-Sep-18 19:30N 39°54' W 075°12'0 0.6
2017-Sep-18 19:28N 39°54' W 075°12'0 0.1
2017-Sep-18 19:01N 39°54' W 075°12'0 0.6
2017-Sep-18 18:58N 39°54' W 075°12'0 0.1
2017-Sep-18 18:31N 39°54' W 075°12'0 0.6
2017-Sep-18 18:28N 39°54' W 075°12'0 0.1
2017-Sep-18 18:00N 39°54' W 075°12'0 0.5
2017-Sep-18 17:58N 39°54' W 075°12'0 0.1
2017-Sep-18 17:31N 39°54' W 075°12'0 0.7
2017-Sep-18 17:28N 39°54' W 075°12'0 0.1
2017-Sep-18 17:01N 39°54' W 075°12'0 0.6
2017-Sep-18 16:58N 39°54' W 075°12'0 0.1
2017-Sep-18 16:30N 39°54' W 075°12'0 0.6
2017-Sep-18 16:28N 39°54' W 075°12'0 0.5
2017-Sep-18 16:00N 39°54' W 075°13'0 5.4
2017-Sep-18 15:58N 39°54' W 075°12'1 2.3
2017-Sep-18 15:30N 39°55' W 075°13'123.3
2017-Sep-18 15:28N 39°54' W 075°12'1 1.2
2017-Sep-18 15:00N 39°53' W 075°12'111.9
2017-Sep-18 14:58N 39°54' W 075°12'2 5.0
2017-Sep-18 14:30N 39°53' W 075°10'249.7
2017-Sep-18 14:28N 39°54' W 075°12'4 8.2
2017-Sep-18 14:00N 39°55' W 075°08'482.6
2017-Sep-18 13:58N 39°54' W 075°12'4 8.3
2017-Sep-18 13:30N 39°55' W 075°08'488.3
2017-Sep-18 13:28N 39°54' W 075°12'4 8.1
2017-Sep-18 13:00N 39°55' W 075°08'486.8
2017-Sep-18 12:58N 39°54' W 075°12'4 8.3
2017-Sep-18 12:30N 39°55' W 075°08'488.3
2017-Sep-18 12:28N 39°54' W 075°12'4 8.3
2017-Sep-18 12:00N 39°55' W 075°08'488.4
2017-Sep-18 11:58N 39°54' W 075°12'0 0.0
2017-Sep-18 11:28N 39°54' W 075°12'4505.1
2017-Sep-18 11:27N 39°55' W 075°08'0 0.0
2017-Sep-18 11:00N 39°55' W 075°08'441.0
2017-Sep-18 10:55N 39°54' W 075°12'4 9.3
2017-Sep-18 10:30N 39°55' W 075°08'489.2
2017-Sep-18 10:28N 39°54' W 075°12'4 8.3
2017-Sep-18 10:00N 39°55' W 075°08'489.3
2017-Sep-18 09:58N 39°54' W 075°12'4 8.4
2017-Sep-18 09:30N 39°55' W 075°08'484.3
2017-Sep-18 09:28N 39°54' W 075°12'4 8.3
2017-Sep-18 09:00N 39°55' W 075°08'485.4
2017-Sep-18 08:58N 39°54' W 075°12'4 8.3
2017-Sep-18 08:30N 39°55' W 075°08'484.9
2017-Sep-18 08:28N 39°54' W 075°12'4 8.4
2017-Sep-18 08:00N 39°55' W 075°08'482.3
2017-Sep-18 07:58N 39°54' W 075°12'4 8.3
2017-Sep-18 07:30N 39°55' W 075°08'483.2
2017-Sep-18 07:28N 39°54' W 075°12'4 8.3
2017-Sep-18 07:00N 39°55' W 075°08'484.0
2017-Sep-18 06:58N 39°54' W 075°12'4 8.3
2017-Sep-18 06:30N 39°55' W 075°08'482.9
2017-Sep-18 06:28N 39°54' W 075°12'4 8.2
2017-Sep-18 06:00N 39°55' W 075°08'482.1
2017-Sep-18 05:58N 39°54' W 075°12'4 8.3
2017-Sep-18 05:30N 39°55' W 075°08'482.7
2017-Sep-18 05:28N 39°54' W 075°12'4 8.3
2017-Sep-18 05:00N 39°55' W 075°08'483.3
2017-Sep-18 04:58N 39°54' W 075°12'4 8.4
2017-Sep-18 04:30N 39°55' W 075°08'482.4
2017-Sep-18 04:28N 39°54' W 075°12'4 8.3
2017-Sep-18 04:00N 39°55' W 075°08'483.7
2017-Sep-18 03:58N 39°54' W 075°12'1 2.1
2017-Sep-18 03:31N 39°53' W 075°12'44608.8
2017-Sep-18 03:30N 39°55' W 075°08'3 5.9
2017-Sep-18 03:00N 39°53' W 075°11'516747.0
2017-Sep-18 03:00N 39°51' W 075°16'0 0.1
2017-Sep-18 02:31N 39°51' W 075°16'11367.6
2017-Sep-18 02:30N 39°51' W 075°15'2 4.9
2017-Sep-18 02:01N 39°53' W 075°12'41592.5
2017-Sep-18 02:00N 39°51' W 075°16'2 5.0
2017-Sep-18 01:30N 39°52' W 075°13'21578.1
2017-Sep-18 01:30N 39°54' W 075°12'0 0.2
2017-Sep-18 01:00N 39°54' W 075°12'0 0.8
2017-Sep-18 00:58N 39°54' W 075°12'0 0.1
2017-Sep-18 00:30N 39°54' W 075°12'0 1.1
2017-Sep-18 00:28N 39°54' W 075°12'0 0.1
2017-Sep-18 00:00N 39°54' W 075°12'0 0.9
2017-Sep-17 23:58N 39°54' W 075°12'0 0.1
2017-Sep-17 23:30N 39°54' W 075°12'0 0.9
2017-Sep-17 23:28N 39°54' W 075°12'0 0.1
2017-Sep-17 23:00N 39°54' W 075°12'0 0.9
2017-Sep-17 22:58N 39°54' W 075°12'0 0.1
2017-Sep-17 22:30N 39°54' W 075°12'0 1.1
2017-Sep-17 22:28N 39°54' W 075°12'0 0.1
2017-Sep-17 22:00N 39°54' W 075°12'0 1.1
2017-Sep-17 21:58N 39°54' W 075°12'0 0.1
2017-Sep-17 21:30N 39°54' W 075°12'0 1.1
2017-Sep-17 21:28N 39°54' W 075°12'0 0.1
2017-Sep-17 21:00N 39°54' W 075°12'0 1.0
2017-Sep-17 20:58N 39°54' W 075°12'0 0.1
2017-Sep-17 20:30N 39°54' W 075°12'0 0.9
2017-Sep-17 20:28N 39°54' W 075°12'0 0.1
2017-Sep-17 20:00N 39°54' W 075°12'0 1.0
2017-Sep-17 19:58N 39°54' W 075°12'0 0.1
2017-Sep-17 19:30N 39°54' W 075°12'0 1.1
2017-Sep-17 19:28N 39°54' W 075°12'0 0.1
2017-Sep-17 19:00N 39°54' W 075°12'0 1.0
2017-Sep-17 18:58N 39°54' W 075°12'0 0.1
2017-Sep-17 18:30N 39°54' W 075°12'0 0.9
2017-Sep-17 18:28N 39°54' W 075°12'0 0.1
2017-Sep-17 18:00N 39°54' W 075°12'0 1.1
2017-Sep-17 17:58N 39°54' W 075°12'0 0.1
2017-Sep-17 17:30N 39°54' W 075°12'0 1.1
2017-Sep-17 17:28N 39°54' W 075°12'0 0.1
2017-Sep-17 17:00N 39°54' W 075°12'0 1.1
2017-Sep-17 16:58N 39°54' W 075°12'0 0.1
2017-Sep-17 16:30N 39°54' W 075°12'0 1.1
2017-Sep-17 16:28N 39°54' W 075°12'0 0.1
2017-Sep-17 16:00N 39°54' W 075°12'0 0.9
2017-Sep-17 15:58N 39°54' W 075°12'0 0.1
2017-Sep-17 15:30N 39°54' W 075°12'0 1.1
2017-Sep-17 15:28N 39°54' W 075°12'0 0.0
2017-Sep-17 14:58N 39°54' W 075°12'0 1.9
2017-Sep-17 14:57N 39°54' W 075°12'0 0.0
2017-Sep-17 14:30N 39°54' W 075°12'0 1.0
2017-Sep-17 14:28N 39°54' W 075°12'0 0.1
2017-Sep-17 14:00N 39°54' W 075°12'0 1.0
2017-Sep-17 13:58N 39°54' W 075°12'0 0.1
2017-Sep-17 13:30N 39°54' W 075°12'0 6.4
2017-Sep-17 13:29N 39°54' W 075°12'0 0.1
2017-Sep-17 13:00N 39°54' W 075°12'0 3.0
2017-Sep-17 13:00N 39°54' W 075°12'0 0.1
2017-Sep-17 12:30N 39°54' W 075°12'0 0.9
2017-Sep-17 12:27N 39°54' W 075°12'0 0.1
2017-Sep-17 12:00N 39°54' W 075°12'0 3.1
2017-Sep-17 12:00N 39°54' W 075°12'0 0.1
2017-Sep-17 11:30N 39°54' W 075°12'0 2.7
2017-Sep-17 11:30N 39°54' W 075°12'0 0.1
2017-Sep-17 11:00N 39°54' W 075°12'0 2.9
2017-Sep-17 11:00N 39°54' W 075°12'0 0.1
2017-Sep-17 10:30N 39°54' W 075°12'0 3.2
2017-Sep-17 10:30N 39°54' W 075°12'0 0.1
2017-Sep-17 10:00N 39°54' W 075°12'0 2.7
2017-Sep-17 10:00N 39°54' W 075°12'0 0.1
2017-Sep-17 09:30N 39°54' W 075°12'0 3.1
2017-Sep-17 09:30N 39°54' W 075°12'0 0.1
2017-Sep-17 09:00N 39°54' W 075°12'0 2.7
2017-Sep-17 09:00N 39°54' W 075°12'0 0.1
2017-Sep-17 08:30N 39°54' W 075°12'0 2.9
2017-Sep-17 08:30N 39°54' W 075°12'0 0.1
2017-Sep-17 08:00N 39°54' W 075°12'0 2.8
2017-Sep-17 08:00N 39°54' W 075°12'0 0.1
2017-Sep-17 07:30N 39°54' W 075°12'0 2.9
2017-Sep-17 07:30N 39°54' W 075°12'0 0.1
2017-Sep-17 07:00N 39°54' W 075°12'0 2.5
2017-Sep-17 07:00N 39°54' W 075°12'0 0.0
2017-Sep-17 06:30N 39°54' W 075°12'0 2.7
2017-Sep-17 06:30N 39°54' W 075°12'0 0.1
2017-Sep-17 06:00N 39°54' W 075°12'0 2.8
2017-Sep-17 06:00N 39°54' W 075°12'0 0.1
2017-Sep-17 05:30N 39°54' W 075°12'0 3.1
2017-Sep-17 05:30N 39°54' W 075°12'0 0.1
2017-Sep-17 05:00N 39°54' W 075°12'0 2.8
2017-Sep-17 05:00N 39°54' W 075°12'0 0.1
2017-Sep-17 04:30N 39°54' W 075°12'0 3.3
2017-Sep-17 04:30N 39°54' W 075°12'0 0.1
2017-Sep-17 04:00N 39°54' W 075°12'0 3.2
2017-Sep-17 04:00N 39°54' W 075°12'0 0.1
2017-Sep-17 03:30N 39°54' W 075°12'0 3.3
2017-Sep-17 03:30N 39°54' W 075°12'0 0.1
2017-Sep-17 03:00N 39°54' W 075°12'0 2.7
2017-Sep-17 03:00N 39°54' W 075°12'0 0.1
2017-Sep-17 02:30N 39°54' W 075°12'0 2.8
2017-Sep-17 02:30N 39°54' W 075°12'2 4.5
2017-Sep-17 02:01N 39°52' W 075°14'2139.2
2017-Sep-17 02:00N 39°54' W 075°12'4 8.2
2017-Sep-17 01:30N 39°51' W 075°16'4269.3
2017-Sep-17 01:30N 39°54' W 075°12'4 7.9
2017-Sep-17 01:00N 39°51' W 075°16'4283.5
2017-Sep-17 01:00N 39°54' W 075°12'2 3.2
2017-Sep-17 00:31N 39°52' W 075°13'2100.2
2017-Sep-17 00:30N 39°54' W 075°12'2 3.5
2017-Sep-17 00:00N 39°52' W 075°13'2120.7
2017-Sep-17 00:00N 39°54' W 075°12'2 3.5
2017-Sep-16 23:30N 39°52' W 075°13'2119.8
2017-Sep-16 23:30N 39°54' W 075°12'2 3.5
2017-Sep-16 23:00N 39°52' W 075°13'2118.2
2017-Sep-16 23:00N 39°54' W 075°12'2 3.5
2017-Sep-16 22:30N 39°52' W 075°13'2132.4
2017-Sep-16 22:30N 39°54' W 075°12'2 3.6
2017-Sep-16 22:01N 39°52' W 075°13'2113.1
2017-Sep-16 22:00N 39°54' W 075°12'2 3.7
2017-Sep-16 21:31N 39°52' W 075°13'2113.0
2017-Sep-16 21:30N 39°54' W 075°12'2 3.8
2017-Sep-16 21:01N 39°52' W 075°13'2121.1
2017-Sep-16 21:00N 39°54' W 075°12'2 3.7
2017-Sep-16 20:31N 39°52' W 075°13'26604.5
2017-Sep-16 20:30N 39°54' W 075°12'0 0.9
2017-Sep-16 20:00N 39°54' W 075°13'21293.4
2017-Sep-16 20:00N 39°52' W 075°13'3 5.5
2017-Sep-16 19:30N 39°55' W 075°13'31957.0
2017-Sep-16 19:30N 39°52' W 075°13'0 0.1
2017-Sep-16 19:01N 39°52' W 075°13'26715.9
2017-Sep-16 19:01N 39°54' W 075°12'2 3.7
2017-Sep-16 18:30N 39°52' W 075°13'256.6
2017-Sep-16 18:28N 39°54' W 075°12'2 3.9
2017-Sep-16 18:01N 39°52' W 075°13'221.6
2017-Sep-16 17:55N 39°54' W 075°12'2 4.3
2017-Sep-16 17:31N 39°52' W 075°13'252.2
2017-Sep-16 17:28N 39°54' W 075°12'2 3.8
2017-Sep-16 17:01N 39°52' W 075°13'251.8
2017-Sep-16 16:58N 39°54' W 075°12'2 3.8
2017-Sep-16 16:30N 39°52' W 075°13'255.2
2017-Sep-16 16:28N 39°54' W 075°12'2 3.8
2017-Sep-16 16:01N 39°52' W 075°13'251.3
2017-Sep-16 15:58N 39°54' W 075°12'2 3.6
2017-Sep-16 15:31N 39°52' W 075°13'250.0
2017-Sep-16 15:28N 39°54' W 075°12'2 3.6
2017-Sep-16 15:01N 39°52' W 075°13'248.8
2017-Sep-16 14:58N 39°54' W 075°12'2 3.6
2017-Sep-16 14:30N 39°52' W 075°13'252.0
2017-Sep-16 14:28N 39°54' W 075°12'2 3.6
2017-Sep-16 14:00N 39°52' W 075°13'249.8
2017-Sep-16 13:58N 39°54' W 075°12'2 3.6
2017-Sep-16 13:30N 39°52' W 075°13'249.8
2017-Sep-16 13:28N 39°54' W 075°12'2 3.6
2017-Sep-16 13:00N 39°52' W 075°13'251.8
2017-Sep-16 12:58N 39°54' W 075°12'2 3.6
2017-Sep-16 12:30N 39°52' W 075°13'250.2
2017-Sep-16 12:28N 39°54' W 075°12'2 3.6
2017-Sep-16 12:00N 39°52' W 075°13'249.8
2017-Sep-16 11:58N 39°54' W 075°12'2 3.6
2017-Sep-16 11:30N 39°52' W 075°13'250.3
2017-Sep-16 11:28N 39°54' W 075°12'1 2.1
2017-Sep-16 11:01N 39°55' W 075°13'31142.5
2017-Sep-16 11:00N 39°52' W 075°13'2 5.0
2017-Sep-16 10:31N 39°54' W 075°13'28967.4
2017-Sep-16 10:30N 39°52' W 075°13'0 0.1
2017-Sep-16 10:00N 39°52' W 075°13'11237.3
2017-Sep-16 10:00N 39°53' W 075°12'4 7.7
2017-Sep-16 09:31N 39°51' W 075°16'33023.3
2017-Sep-16 09:30N 39°52' W 075°13'0 0.0
2017-Sep-16 09:00N 39°52' W 075°13'62040.5
2017-Sep-16 09:00N 39°51' W 075°21'4 7.2
2017-Sep-16 08:31N 39°48' W 075°25'108680.8
2017-Sep-16 08:30N 39°52' W 075°13'1326.3
2017-Sep-16 08:01N 39°46' W 075°28'1315782.4
2017-Sep-16 08:00N 39°52' W 075°13'1632.1
2017-Sep-16 07:31N 39°43' W 075°30'1628873.2
2017-Sep-16 07:30N 39°52' W 075°13'1836.5
2017-Sep-16 07:01N 39°41' W 075°31'1832795.6
2017-Sep-16 07:00N 39°52' W 075°13'2142.8
2017-Sep-16 06:30N 39°38' W 075°34'2125672.1
2017-Sep-16 06:30N 39°52' W 075°13'0 0.0
2017-Sep-16 06:00N 39°52' W 075°13'2651.4
2017-Sep-16 05:31N 39°33' W 075°36'2623101.6
2017-Sep-16 05:30N 39°52' W 075°13'2958.0
2017-Sep-16 05:01N 39°33' W 075°41'2913016.0
2017-Sep-16 05:00N 39°52' W 075°13'3264.2
2017-Sep-16 04:30N 39°32' W 075°46'3257658.2
2017-Sep-16 04:30N 39°52' W 075°13'0 0.1
2017-Sep-16 04:00N 39°52' W 075°13'3517912.4
2017-Sep-16 04:00N 39°32' W 075°50'3 5.6
2017-Sep-16 03:31N 39°31' W 075°53'3819318.4
2017-Sep-16 03:30N 39°52' W 075°13'0 0.1
2017-Sep-16 03:00N 39°52' W 075°13'417809.9
2017-Sep-16 03:00N 39°29' W 075°57'4 7.4
2017-Sep-16 02:31N 39°26' W 076°00'4540340.3
2017-Sep-16 02:30N 39°52' W 075°13'4897.2
2017-Sep-16 02:01N 39°24' W 076°04'48174595.2
2017-Sep-16 02:01N 39°52' W 075°13'52104.3
2017-Sep-16 01:31N 39°22' W 076°08'5246924.0
2017-Sep-16 01:30N 39°52' W 075°13'56111.8
2017-Sep-16 01:01N 39°20' W 076°12'56100375.2
2017-Sep-16 01:00N 39°52' W 075°13'59118.0
2017-Sep-16 00:31N 39°17' W 076°14'59106122.2
2017-Sep-16 00:30N 39°52' W 075°13'0 0.0
2017-Sep-16 00:01N 39°52' W 075°13'6227886.3
2017-Sep-16 00:00N 39°13' W 076°15'62124.4
2017-Sep-15 23:30N 39°52' W 075°13'6629699.7
2017-Sep-15 23:30N 39°10' W 076°18'66132.7
2017-Sep-15 23:00N 39°52' W 075°13'699530.4
2017-Sep-15 23:00N 39°10' W 076°23'69139.8
2017-Sep-15 22:31N 39°52' W 075°13'719848.8
2017-Sep-15 22:30N 39°12' W 076°29'71144.4
2017-Sep-15 22:01N 39°52' W 075°13'7337691.5
2017-Sep-15 22:00N 39°13' W 076°34'73147.0
2017-Sep-15 21:31N 39°52' W 075°13'7438287.1
2017-Sep-15 21:30N 39°13' W 076°35'74149.1
2017-Sep-15 21:00N 39°52' W 075°13'742435.6
2017-Sep-15 20:59N 39°13' W 076°35'74158.9
2017-Sep-15 20:31N 39°52' W 075°13'742348.2
2017-Sep-15 20:29N 39°13' W 076°35'74158.1
2017-Sep-15 20:00N 39°52' W 075°13'742478.1
2017-Sep-15 19:59N 39°13' W 076°35'74158.8
2017-Sep-15 19:31N 39°52' W 075°13'742347.6
2017-Sep-15 19:29N 39°13' W 076°35'74158.6
2017-Sep-15 19:01N 39°52' W 075°13'742347.7
2017-Sep-15 18:59N 39°13' W 076°35'74158.9
2017-Sep-15 18:31N 39°52' W 075°13'742327.6
2017-Sep-15 18:29N 39°13' W 076°35'74158.8
2017-Sep-15 18:01N 39°52' W 075°13'742327.2
2017-Sep-15 17:59N 39°13' W 076°35'74158.2
2017-Sep-15 17:30N 39°52' W 075°13'742477.9
2017-Sep-15 17:29N 39°13' W 076°35'74158.3
2017-Sep-15 17:00N 39°52' W 075°13'742455.2
2017-Sep-15 16:59N 39°13' W 076°35'74158.2
2017-Sep-15 16:30N 39°52' W 075°13'742478.0
2017-Sep-15 16:29N 39°13' W 076°35'74158.3
2017-Sep-15 16:00N 39°52' W 075°13'742456.3
2017-Sep-15 15:59N 39°13' W 076°35'74158.9
2017-Sep-15 15:31N 39°52' W 075°13'742328.8
2017-Sep-15 15:29N 39°13' W 076°35'74158.7
2017-Sep-15 15:00N 39°52' W 075°13'742392.5
2017-Sep-15 14:59N 39°13' W 076°35'74159.0
2017-Sep-15 14:31N 39°52' W 075°13'742351.5
2017-Sep-15 14:29N 39°13' W 076°35'74159.1
2017-Sep-15 14:01N 39°52' W 075°13'742331.3
2017-Sep-15 13:59N 39°13' W 076°35'74158.5
2017-Sep-15 13:30N 39°52' W 075°13'742482.5
2017-Sep-15 13:29N 39°13' W 076°35'74158.9
2017-Sep-15 13:00N 39°52' W 075°13'742351.8
2017-Sep-15 12:59N 39°13' W 076°35'74159.0
2017-Sep-15 12:30N 39°52' W 075°13'742372.6
2017-Sep-15 12:29N 39°13' W 076°35'74158.9
2017-Sep-15 12:00N 39°52' W 075°13'7466816.6
2017-Sep-15 12:00N 39°13' W 076°35'74148.9
2017-Sep-15 11:31N 39°52' W 075°13'7243404.2
2017-Sep-15 11:30N 39°14' W 076°32'0 0.7
2017-Sep-15 11:01N 39°14' W 076°32'7264954.0
2017-Sep-15 11:00N 39°52' W 075°13'0 0.0
2017-Sep-15 10:30N 39°52' W 075°13'7264984.6
2017-Sep-15 10:30N 39°14' W 076°32'0 0.1
2017-Sep-15 10:01N 39°14' W 076°33'7232501.5
2017-Sep-15 10:00N 39°52' W 075°13'0 0.1
2017-Sep-15 09:30N 39°52' W 075°13'7286680.2
2017-Sep-15 09:30N 39°14' W 076°32'72144.6
2017-Sep-15 09:00N 39°52' W 075°13'7136724.6
2017-Sep-15 09:00N 39°12' W 076°29'71143.4
2017-Sep-15 08:30N 39°52' W 075°13'6962474.8
2017-Sep-15 08:30N 39°10' W 076°25'4 7.3
2017-Sep-15 08:01N 39°09' W 076°21'68121664.9
2017-Sep-15 08:00N 39°52' W 075°13'0 0.0
2017-Sep-15 07:30N 39°52' W 075°13'6577492.5
2017-Sep-15 07:30N 39°11' W 076°17'3 6.5
2017-Sep-15 07:01N 39°13' W 076°15'61221174.1
2017-Sep-15 07:00N 39°52' W 075°13'59118.4
2017-Sep-15 06:31N 39°16' W 076°14'5953170.2
2017-Sep-15 06:30N 39°52' W 075°13'0 0.0
2017-Sep-15 06:00N 39°52' W 075°13'5751006.2
2017-Sep-15 06:00N 39°19' W 076°13'3 6.0
2017-Sep-15 05:31N 39°21' W 076°10'54193287.5
2017-Sep-15 05:31N 39°52' W 075°13'0 0.0
2017-Sep-15 05:00N 39°52' W 075°13'5122734.2
2017-Sep-15 05:00N 39°23' W 076°06'51102.2
2017-Sep-15 04:31N 39°52' W 075°13'472423.9
2017-Sep-15 04:29N 39°24' W 076°03'4798.0
2017-Sep-15 04:01N 39°52' W 075°13'431132.5
2017-Sep-15 03:58N 39°27' W 075°59'4394.0
2017-Sep-15 03:31N 39°52' W 075°13'4020519.3
2017-Sep-15 03:30N 39°30' W 075°56'4080.2
2017-Sep-15 03:01N 39°52' W 075°13'364781.4
2017-Sep-15 03:00N 39°32' W 075°52'4 8.0
2017-Sep-15 02:31N 39°32' W 075°46'33117146.8
2017-Sep-15 02:31N 39°52' W 075°13'0 0.1
2017-Sep-15 02:01N 39°52' W 075°13'2920874.2
2017-Sep-15 02:00N 39°33' W 075°41'2958.2
2017-Sep-15 01:31N 39°52' W 075°13'2515220.8
2017-Sep-15 01:30N 39°33' W 075°35'2551.0
2017-Sep-15 01:01N 39°52' W 075°13'2310363.4
2017-Sep-15 01:00N 39°36' W 075°34'2346.2
2017-Sep-15 00:31N 39°52' W 075°13'2112363.0
2017-Sep-15 00:30N 39°39' W 075°33'2141.4
2017-Sep-15 00:01N 39°52' W 075°13'187286.9
2017-Sep-15 00:00N 39°41' W 075°31'3 6.4
2017-Sep-14 23:30N 39°44' W 075°30'1656403.4
2017-Sep-14 23:30N 39°52' W 075°13'0 0.0
2017-Sep-14 23:01N 39°52' W 075°13'135261.9
2017-Sep-14 23:00N 39°46' W 075°28'3 5.6
2017-Sep-14 22:30N 39°48' W 075°25'1037734.1
2017-Sep-14 22:30N 39°52' W 075°13'0 0.3
2017-Sep-14 22:01N 39°52' W 075°13'83918.0
2017-Sep-14 22:00N 39°50' W 075°22'714.0
2017-Sep-14 21:31N 39°52' W 075°14'53358.9
2017-Sep-14 21:30N 39°51' W 075°20'5 9.4
2017-Sep-14 21:01N 39°52' W 075°14'21388.6
2017-Sep-14 21:00N 39°51' W 075°16'2 3.9
2017-Sep-14 20:31N 39°52' W 075°14'21675.3
2017-Sep-14 20:30N 39°51' W 075°16'1 2.8
2017-Sep-14 20:00N 39°51' W 075°14'0782.0
2017-Sep-14 20:00N 39°52' W 075°14'0 0.1
2017-Sep-14 19:31N 39°52' W 075°14'24274.4
2017-Sep-14 19:30N 39°54' W 075°12'0 0.0
2017-Sep-14 19:01N 39°54' W 075°12'21440.6
2017-Sep-14 19:00N 39°52' W 075°14'0 0.0
2017-Sep-14 18:31N 39°51' W 075°14'28682.4
2017-Sep-14 18:31N 39°54' W 075°12'2 4.9
2017-Sep-14 18:00N 39°51' W 075°14'251.3
2017-Sep-14 17:58N 39°54' W 075°12'2 5.3
2017-Sep-14 17:31N 39°51' W 075°14'2 4.8
2017-Sep-14 17:01N 39°54' W 075°12'0 0.0
2017-Sep-14 16:31N 39°54' W 075°12'0 0.0
2017-Sep-14 16:01N 39°54' W 075°12'2 4.8
2017-Sep-14 15:31N 39°51' W 075°14'2 4.8
2017-Sep-14 15:01N 39°54' W 075°12'28441.8
2017-Sep-14 15:00N 39°52' W 075°14'2 4.7
2017-Sep-14 14:30N 39°54' W 075°12'28335.7
2017-Sep-14 14:30N 39°52' W 075°14'2 4.6
2017-Sep-14 14:01N 39°54' W 075°12'2 4.6
2017-Sep-14 13:30N 39°52' W 075°14'248.2
2017-Sep-14 13:28N 39°54' W 075°12'2 5.1
2017-Sep-14 13:00N 39°52' W 075°14'248.0
2017-Sep-14 12:58N 39°54' W 075°12'2 5.2
2017-Sep-14 12:30N 39°52' W 075°14'28413.4
2017-Sep-14 12:30N 39°54' W 075°12'0 0.0
2017-Sep-14 12:00N 39°54' W 075°12'24213.3
2017-Sep-14 12:00N 39°52' W 075°14'0 0.0
2017-Sep-14 11:30N 39°52' W 075°14'248.3
2017-Sep-14 11:28N 39°54' W 075°12'0 0.0
2017-Sep-14 11:00N 39°54' W 075°12'28413.4
2017-Sep-14 11:00N 39°52' W 075°14'0 0.0
2017-Sep-14 10:30N 39°52' W 075°14'248.4
2017-Sep-14 10:28N 39°54' W 075°12'2 5.2
2017-Sep-14 10:00N 39°52' W 075°14'28400.3
2017-Sep-14 10:00N 39°54' W 075°12'0 0.0
2017-Sep-14 09:30N 39°54' W 075°12'28413.7
2017-Sep-14 09:30N 39°52' W 075°14'0 0.0
2017-Sep-14 09:00N 39°52' W 075°14'24197.3
2017-Sep-14 09:00N 39°54' W 075°12'0 0.0
2017-Sep-14 08:30N 39°54' W 075°12'22107.0
2017-Sep-14 08:30N 39°52' W 075°14'2 4.7
2017-Sep-14 08:01N 39°54' W 075°12'22155.2
2017-Sep-14 08:00N 39°51' W 075°14'2 4.8
2017-Sep-14 07:31N 39°54' W 075°12'21108.2
2017-Sep-14 07:30N 39°51' W 075°14'0 0.0
2017-Sep-14 07:00N 39°51' W 075°14'250.2
2017-Sep-14 06:58N 39°54' W 075°12'2 5.5
2017-Sep-14 06:30N 39°51' W 075°14'24446.1
2017-Sep-14 06:30N 39°54' W 075°12'0 0.0
2017-Sep-14 06:00N 39°54' W 075°12'28865.6
2017-Sep-14 06:00N 39°51' W 075°14'0 0.0
2017-Sep-14 05:30N 39°51' W 075°14'24442.6
2017-Sep-14 05:30N 39°54' W 075°12'2 4.9
2017-Sep-14 05:00N 39°51' W 075°14'251.7
2017-Sep-14 04:58N 39°54' W 075°12'2 5.5
2017-Sep-14 04:30N 39°51' W 075°14'28885.2
2017-Sep-14 04:30N 39°54' W 075°12'2 4.9
2017-Sep-14 04:00N 39°51' W 075°14'22221.3
2017-Sep-14 04:00N 39°54' W 075°12'2 4.9
2017-Sep-14 03:30N 39°51' W 075°14'28872.6
2017-Sep-14 03:30N 39°54' W 075°12'2 4.9
2017-Sep-14 03:00N 39°51' W 075°14'24446.1
2017-Sep-14 03:00N 39°54' W 075°12'2 4.9
2017-Sep-14 02:30N 39°51' W 075°14'24432.8
2017-Sep-14 02:30N 39°54' W 075°12'2 4.9
2017-Sep-14 02:01N 39°51' W 075°14'250.6
2017-Sep-14 01:58N 39°54' W 075°12'2 5.3
2017-Sep-14 01:30N 39°51' W 075°14'28678.6
2017-Sep-14 01:30N 39°54' W 075°12'0 0.0
2017-Sep-14 01:00N 39°54' W 075°12'24253.4
2017-Sep-14 01:00N 39°52' W 075°14'0 0.1
2017-Sep-14 00:31N 39°52' W 075°14'22802.3
2017-Sep-14 00:30N 39°54' W 075°12'2 4.7
2017-Sep-14 00:00N 39°52' W 075°14'24206.7
2017-Sep-14 00:00N 39°54' W 075°12'0 0.0
2017-Sep-13 23:31N 39°54' W 075°12'24213.3
2017-Sep-13 23:30N 39°52' W 075°14'2 4.7
2017-Sep-13 23:01N 39°54' W 075°12'611.4
2017-Sep-13 22:30N 39°51' W 075°19'610282.6
2017-Sep-13 22:30N 39°54' W 075°12'0 0.0
2017-Sep-13 22:01N 39°54' W 075°12'1223.7
2017-Sep-13 21:31N 39°48' W 075°26'1242735.1
2017-Sep-13 21:30N 39°54' W 075°12'1531.0
2017-Sep-13 21:00N 39°45' W 075°29'1555742.4
2017-Sep-13 21:00N 39°54' W 075°12'1938.4
2017-Sep-13 20:30N 39°41' W 075°31'19377.6
2017-Sep-13 20:27N 39°54' W 075°12'2352.1
2017-Sep-13 20:00N 39°38' W 075°35'2384226.9
2017-Sep-13 20:00N 39°54' W 075°12'0 0.0
2017-Sep-13 19:31N 39°54' W 075°12'2545790.0
2017-Sep-13 19:30N 39°33' W 075°32'3 6.8
2017-Sep-13 19:01N 39°30' W 075°33'29287.7
2017-Sep-13 18:55N 39°54' W 075°12'3278.5
2017-Sep-13 18:30N 39°26' W 075°32'3256710.4
2017-Sep-13 18:30N 39°54' W 075°12'3367.0
2017-Sep-13 18:01N 39°22' W 075°28'33120352.7
2017-Sep-13 18:01N 39°54' W 075°12'3671.7
2017-Sep-13 17:31N 39°19' W 075°24'3643021.6
2017-Sep-13 17:30N 39°54' W 075°12'0 0.0
2017-Sep-13 17:01N 39°54' W 075°12'3969663.5
2017-Sep-13 17:00N 39°15' W 075°20'3977.5
2017-Sep-13 16:31N 39°54' W 075°12'42151511.9
2017-Sep-13 16:31N 39°12' W 075°17'5 9.6
2017-Sep-13 16:01N 39°08' W 075°13'46914.6
2017-Sep-13 15:58N 39°54' W 075°12'0 0.0
2017-Sep-13 15:30N 39°54' W 075°12'5019995.6
2017-Sep-13 15:30N 39°04' W 075°10'50100.4
2017-Sep-13 15:00N 39°54' W 075°12'56380.9
2017-Sep-13 14:52N 38°58' W 075°07'3 7.4
2017-Sep-13 14:30N 38°56' W 075°06'58104541.4
2017-Sep-13 14:30N 39°54' W 075°12'0 0.0
2017-Sep-13 13:58N 39°54' W 075°12'61678.0
2017-Sep-13 13:52N 38°53' W 075°07'61169.0
2017-Sep-13 13:30N 39°54' W 075°12'62224983.0
2017-Sep-13 13:30N 38°51' W 075°05'62124.9
2017-Sep-13 13:00N 39°54' W 075°12'661051.5
2017-Sep-13 12:57N 38°48' W 074°60'66151.2
2017-Sep-13 12:30N 39°54' W 075°12'6611938.3
2017-Sep-13 12:30N 38°49' W 074°54'66134.2
2017-Sep-13 12:00N 39°54' W 075°12'6519425.7
2017-Sep-13 12:00N 38°51' W 074°49'65130.5
2017-Sep-13 11:30N 39°54' W 075°12'626761.5
2017-Sep-13 11:30N 38°55' W 074°45'62126.1
2017-Sep-13 11:00N 39°54' W 075°12'6071467.9
2017-Sep-13 11:00N 38°59' W 074°41'60119.2
2017-Sep-13 10:30N 39°54' W 075°12'58207995.3
2017-Sep-13 10:30N 39°03' W 074°37'58115.6
2017-Sep-13 10:00N 39°54' W 075°12'55110.8
2017-Sep-13 09:30N 39°10' W 074°28'5599558.7
2017-Sep-13 09:30N 39°54' W 075°12'55109.3
2017-Sep-13 09:01N 39°14' W 074°24'5549096.7
2017-Sep-13 09:00N 39°54' W 075°12'54108.6
2017-Sep-13 08:31N 39°18' W 074°20'5448721.2
2017-Sep-13 08:30N 39°54' W 075°12'54107.8
2017-Sep-13 08:00N 39°21' W 074°16'5464601.2
2017-Sep-13 08:00N 39°54' W 075°12'54108.4
2017-Sep-13 07:31N 39°25' W 074°13'5464909.1
2017-Sep-13 07:30N 39°54' W 075°12'54107.9
2017-Sep-13 07:01N 39°30' W 074°10'541030.9
2017-Sep-13 06:57N 39°54' W 075°12'54120.2
2017-Sep-13 06:30N 39°34' W 074°07'5448510.9
2017-Sep-13 06:30N 39°54' W 075°12'55109.2
2017-Sep-13 06:00N 39°38' W 074°04'55196496.9
2017-Sep-13 06:00N 39°54' W 075°12'56112.4
2017-Sep-13 05:31N 39°43' W 074°01'5633598.8
2017-Sep-13 05:30N 39°54' W 075°12'57114.2
2017-Sep-13 05:00N 39°47' W 073°59'57102633.5
2017-Sep-13 05:00N 39°54' W 075°12'57114.8
2017-Sep-13 04:31N 39°52' W 073°58'571113.2
2017-Sep-13 04:27N 39°54' W 075°12'0 0.0
2017-Sep-13 04:00N 39°54' W 075°12'5820841.0
2017-Sep-13 04:00N 39°57' W 073°57'5 9.7
2017-Sep-13 03:30N 40°02' W 073°56'59212220.9
2017-Sep-13 03:30N 39°54' W 075°12'0 0.0
2017-Sep-13 03:01N 39°54' W 075°12'6036032.4
2017-Sep-13 03:00N 40°06' W 073°56'63125.6
2017-Sep-13 02:31N 39°51' W 075°15'642458.9
2017-Sep-13 02:29N 40°11' W 073°55'65137.0
2017-Sep-13 02:00N 39°51' W 075°16'6779842.6
2017-Sep-13 02:00N 40°16' W 073°55'64128.6
2017-Sep-13 01:31N 39°52' W 075°13'6639618.4
2017-Sep-13 01:30N 40°20' W 073°55'66132.2
2017-Sep-13 01:01N 39°52' W 075°13'683647.7
2017-Sep-13 00:59N 40°25' W 073°55'4 8.9
2017-Sep-13 00:30N 40°29' W 073°59'672855.7
2017-Sep-13 00:29N 39°52' W 075°13'64134.0
2017-Sep-13 00:00N 40°29' W 074°05'642606.3
2017-Sep-12 23:59N 39°52' W 075°13'61124.5
2017-Sep-12 23:29N 40°30' W 074°09'6111067.7
2017-Sep-12 23:29N 39°52' W 075°13'0 0.0
2017-Sep-12 22:59N 39°52' W 075°13'0 0.0
2017-Sep-12 22:29N 39°52' W 075°13'0 0.0
2017-Sep-12 21:59N 39°52' W 075°13'0 0.0
2017-Sep-12 21:29N 39°52' W 075°13'0 0.0
2017-Sep-12 20:59N 39°52' W 075°13'0 0.0
2017-Sep-12 20:29N 39°52' W 075°13'0 0.0
2017-Sep-12 19:59N 39°52' W 075°13'0 0.0
2017-Sep-12 19:29N 39°52' W 075°13'0 0.0
2017-Sep-12 18:59N 39°52' W 075°13'0 0.0
2017-Sep-12 18:29N 39°52' W 075°13'0 0.0
2017-Sep-12 17:59N 39°52' W 075°13'0 0.3
2017-Sep-12 17:29N 39°52' W 075°13'0 0.1
2017-Sep-12 16:59N 39°52' W 075°13'0 0.0
2017-Sep-12 16:29N 39°52' W 075°13'0 0.1
2017-Sep-12 15:59N 39°52' W 075°13'0 0.0
2017-Sep-12 15:29N 39°52' W 075°13'0 0.0
2017-Sep-12 14:59N 39°52' W 075°13'0 0.0
2017-Sep-12 14:26N 39°52' W 075°13'0 0.0
2017-Sep-12 13:56N 39°52' W 075°13'0 0.0
2017-Sep-12 13:29N 39°52' W 075°13'0 0.0
2017-Sep-12 12:59N 39°52' W 075°13'0 0.0
2017-Sep-12 09:14N 39°52' W 075°13'0 0.0
2017-Sep-12 08:59N 39°52' W 075°13'0 0.0
2017-Sep-12 08:26N 39°52' W 075°13'0 0.0
2017-Sep-12 07:59N 39°52' W 075°13'0 0.0
2017-Sep-12 07:29N 39°52' W 075°13'0 0.0
2017-Sep-12 06:59N 39°52' W 075°13'0 0.1
2017-Sep-12 06:29N 39°52' W 075°13'0 0.0
2017-Sep-12 05:59N 39°52' W 075°13'0 0.3
2017-Sep-12 05:29N 39°52' W 075°13'58496.8
2017-Sep-12 05:22N 40°29' W 074°14'3 7.3
2017-Sep-12 05:00N 40°30' W 074°11'612437.1
2017-Sep-12 04:59N 39°52' W 075°13'0 0.0
2017-Sep-12 04:29N 39°52' W 075°13'62313.2
2017-Sep-12 04:17N 40°29' W 074°08'0 0.0
2017-Sep-12 03:59N 40°29' W 074°08'6244721.7
2017-Sep-12 03:59N 39°52' W 075°13'0 0.0
2017-Sep-12 03:29N 39°52' W 075°13'0 0.0
2017-Sep-12 02:59N 39°52' W 075°13'0 0.0
2017-Sep-12 02:29N 39°52' W 075°13'0 0.0
2017-Sep-12 01:59N 39°52' W 075°13'0 0.0
2017-Sep-12 01:29N 39°52' W 075°13'0 0.0
2017-Sep-12 00:59N 39°52' W 075°13'0 0.0
2017-Sep-12 00:29N 39°52' W 075°13'0 0.0
2017-Sep-11 23:59N 39°52' W 075°13'0 0.2
2017-Sep-11 23:29N 39°52' W 075°13'0 0.2
2017-Sep-11 22:59N 39°52' W 075°13'0 0.1
2017-Sep-11 22:29N 39°52' W 075°13'0 0.0
2017-Sep-11 21:59N 39°52' W 075°13'0 0.0
2017-Sep-11 21:29N 39°52' W 075°13'0 0.0
2017-Sep-11 20:59N 39°52' W 075°13'2 3.5
2017-Sep-11 20:31N 39°54' W 075°12'0 0.5
2017-Sep-11 19:59N 39°54' W 075°12'0 0.0
2017-Sep-11 19:29N 39°54' W 075°12'0 0.0
2017-Sep-11 18:59N 39°54' W 075°12'0 0.0
2017-Sep-11 18:29N 39°54' W 075°12'0 0.0
2017-Sep-11 17:59N 39°54' W 075°12'0 0.0
2017-Sep-11 17:29N 39°54' W 075°12'0 0.0
2017-Sep-11 16:59N 39°54' W 075°12'60148.6
2017-Sep-11 16:35N 40°29' W 074°08'60640.8
2017-Sep-11 16:29N 39°54' W 075°12'0 0.0
2017-Sep-11 15:59N 39°54' W 075°12'60148.7
2017-Sep-11 15:35N 40°29' W 074°08'60638.4
2017-Sep-11 15:29N 39°54' W 075°12'6010334.6
2017-Sep-11 15:29N 40°29' W 074°08'62130.2
2017-Sep-11 15:00N 39°52' W 075°13'62278.4
2017-Sep-11 14:47N 40°29' W 074°08'0 0.0
2017-Sep-11 14:29N 40°29' W 074°08'622328.4
2017-Sep-11 14:27N 39°52' W 075°13'0 0.0
2017-Sep-11 14:00N 39°52' W 075°13'0 0.0
2017-Sep-11 13:30N 39°52' W 075°13'0 0.0
2017-Sep-11 12:57N 39°52' W 075°13'0 0.0
2017-Sep-11 12:30N 39°52' W 075°13'0 0.0
2017-Sep-11 12:00N 39°52' W 075°13'0 0.0
2017-Sep-11 11:30N 39°52' W 075°13'0 0.0
2017-Sep-11 11:00N 39°52' W 075°13'0 0.2
2017-Sep-11 10:30N 39°52' W 075°13'0 0.1
2017-Sep-11 10:00N 39°52' W 075°13'0 0.0
2017-Sep-11 09:30N 39°52' W 075°13'0 0.0
2017-Sep-11 08:57N 39°52' W 075°13'0 0.0
2017-Sep-11 08:30N 39°52' W 075°13'0 0.0
2017-Sep-11 08:00N 39°52' W 075°13'0 0.0
2017-Sep-11 07:30N 39°52' W 075°13'0 0.1
2017-Sep-11 07:00N 39°52' W 075°13'4 7.1
2017-Sep-11 06:31N 39°51' W 075°17'510.9
2017-Sep-11 06:01N 39°49' W 075°24'510.8
2017-Sep-11 05:30N 39°45' W 075°29'510.8
2017-Sep-11 05:00N 39°40' W 075°32'5 9.7
2017-Sep-11 04:31N 39°36' W 075°34'510.1
2017-Sep-11 04:01N 39°31' W 075°33'2 4.2
2017-Sep-11 03:31N 39°29' W 075°34'4 8.7
2017-Sep-11 03:01N 39°25' W 075°31'90721.5
2017-Sep-11 02:53N 40°29' W 074°08'91240.7
2017-Sep-11 02:30N 39°22' W 075°27'4 8.8
2017-Sep-11 02:01N 39°19' W 075°23'4 8.7
2017-Sep-11 01:30N 39°15' W 075°20'4 8.5
2017-Sep-11 01:00N 39°12' W 075°17'4 9.0
2017-Sep-11 00:30N 39°08' W 075°14'96296.9
2017-Sep-11 00:11N 40°29' W 074°08'97541.6
2017-Sep-11 00:00N 39°05' W 075°11'3 6.7
2017-Sep-10 23:30N 39°01' W 075°09'100576.5
2017-Sep-10 23:20N 40°29' W 074°08'0 0.3
2017-Sep-10 22:47N 40°29' W 074°08'0 0.0
2017-Sep-10 21:10N 40°29' W 074°08'1 0.7
2017-Sep-10 19:19N 40°29' W 074°06'2 6.7
2017-Sep-10 18:59N 40°29' W 074°03'3 5.3
2017-Sep-10 18:30N 40°29' W 073°60'5616.0
2017-Sep-10 15:01N 39°34' W 074°09'0 9.7
2017-Sep-10 15:00N 39°34' W 074°09'10 9.6
2017-Sep-10 13:59N 39°42' W 074°02'5 9.3
2017-Sep-10 13:30N 39°47' W 074°01'5 9.3
2017-Sep-10 13:00N 39°51' W 074°00'5 9.5
2017-Sep-10 12:29N 39°56' W 073°58'8 9.8
2017-Sep-10 11:42N 39°48' W 073°59'1 6.9
2017-Sep-10 11:30N 39°47' W 073°59'4 6.9
2017-Sep-10 10:59N 39°43' W 074°01'28178.7
2017-Sep-10 10:50N 40°11' W 073°55'3195.0
2017-Sep-10 10:30N 39°40' W 074°02'3 6.9
2017-Sep-10 10:00N 39°37' W 074°04'3 6.8
2017-Sep-10 09:30N 39°34' W 074°05'4 6.8
2017-Sep-10 08:58N 39°31' W 074°07'61178.0
2017-Sep-10 08:38N 40°31' W 073°59'2 9.6
2017-Sep-10 08:27N 40°32' W 074°01'511.0
2017-Sep-10 08:00N 40°36' W 074°03'510.0
2017-Sep-10 07:30N 40°41' W 074°02'510.5
2017-Sep-10 07:00N 40°46' W 074°00'5 9.7
2017-Sep-10 06:30N 40°51' W 073°57'5 8.9
2017-Sep-10 06:00N 40°55' W 073°55'12715.3
2017-Sep-09 21:41N 39°01' W 075°09'1 3.8
2017-Sep-09 21:26N 39°02' W 075°10'4 9.3
2017-Sep-09 21:00N 39°06' W 075°12'5 9.8
2017-Sep-09 20:30N 39°10' W 075°15'  
Track history (hours):
 
Tides and Currents Weather Stations Pressure Air Temp Water Temp Dewpoint Dewpoint Depression Visibility Wind Speed Wind Dir Waves Ship Positions

Anacostia

Owner: Vane Line Bunkering, Inc., Philadelphia, PA. More information available from US FCC via Universal Licensing System and Coast Guard Vessel Documentation Center.

Last reported at 2017-Sep-19 20:30 UTC. Time now 2017-Sep-19 20:36 UTC.
Position N 39°52' W 075°13'.

Length 33 m; draft 4.2 m.

Type: Towing. MMSI: 367371820.

Date/timePositionNaut miles runAvg speedWind from/ knotsBaromVisibWave heightAir tempDewpointWater temp
2017-Sep-19 20:30N 39°52' W 075°13'6776.2
2017-Sep-19 20:29N 39°56' W 075°08'611.8
2017-Sep-19 20:00N 39°52' W 075°13'6838.6
2017-Sep-19 19:59N 39°56' W 075°08'611.8
2017-Sep-19 19:30N 39°52' W 075°13'6773.4
2017-Sep-19 19:29N 39°56' W 075°08'611.8
2017-Sep-19 19:00N 39°52' W 075°13'6795.9
2017-Sep-19 18:59N 39°56' W 075°08'612.1
2017-Sep-19 18:30N 39°52' W 075°13'6830.0
2017-Sep-19 18:29N 39°56' W 075°08'612.1
2017-Sep-19 18:00N 39°52' W 075°13'6860.2
2017-Sep-19 17:59N 39°56' W 075°08'612.0
2017-Sep-19 17:30N 39°52' W 075°13'6788.3
2017-Sep-19 17:29N 39°56' W 075°08'611.9
2017-Sep-19 17:00N 39°52' W 075°13'6755.5
2017-Sep-19 16:59N 39°56' W 075°08'611.9
2017-Sep-19 16:30N 39°52' W 075°13'6815.1
2017-Sep-19 16:29N 39°56' W 075°08'611.9
2017-Sep-19 16:00N 39°52' W 075°13'6754.0
2017-Sep-19 15:59N 39°56' W 075°08'611.9
2017-Sep-19 15:30N 39°52' W 075°13'6812.7
2017-Sep-19 15:29N 39°56' W 075°08'612.0
2017-Sep-19 15:00N 39°52' W 075°13'6757.3
2017-Sep-19 14:59N 39°56' W 075°08'612.0
2017-Sep-19 14:30N 39°52' W 075°13'6756.2
2017-Sep-19 14:29N 39°56' W 075°08'612.0
2017-Sep-19 14:00N 39°52' W 075°13'6746.9
2017-Sep-19 13:59N 39°56' W 075°08'611.9
2017-Sep-19 13:30N 39°52' W 075°13'6801.2
2017-Sep-19 13:29N 39°56' W 075°08'611.8
2017-Sep-19 13:00N 39°52' W 075°13'6748.0
2017-Sep-19 12:59N 39°56' W 075°08'611.8
2017-Sep-19 12:30N 39°52' W 075°13'6776.2
2017-Sep-19 12:29N 39°56' W 075°08'611.8
2017-Sep-19 12:00N 39°52' W 075°13'6749.5
2017-Sep-19 11:59N 39°56' W 075°08'611.8
2017-Sep-19 11:30N 39°52' W 075°13'6775.6
2017-Sep-19 11:29N 39°56' W 075°08'611.8
2017-Sep-19 11:00N 39°52' W 075°13'6748.1
2017-Sep-19 10:59N 39°56' W 075°08'0 0.0
2017-Sep-19 10:31N 39°56' W 075°08'6361.2
2017-Sep-19 10:30N 39°52' W 075°13'510.4
2017-Sep-19 10:01N 39°55' W 075°08'5330.6
2017-Sep-19 10:00N 39°52' W 075°13'3 5.7
2017-Sep-19 09:30N 39°53' W 075°10'3205.5
2017-Sep-19 09:30N 39°52' W 075°13'0 0.7
2017-Sep-19 09:00N 39°52' W 075°13'022.2
2017-Sep-19 09:00N 39°52' W 075°13'2 5.1
2017-Sep-19 08:31N 39°51' W 075°16'2144.8
2017-Sep-19 08:30N 39°52' W 075°13'2 5.0
2017-Sep-19 08:01N 39°51' W 075°16'2149.5
2017-Sep-19 08:00N 39°52' W 075°13'2 4.7
2017-Sep-19 07:31N 39°51' W 075°16'2137.4
2017-Sep-19 07:30N 39°52' W 075°13'2 4.1
2017-Sep-19 07:00N 39°54' W 075°12'2136.4
2017-Sep-19 07:00N 39°52' W 075°13'2 4.0
2017-Sep-19 06:30N 39°54' W 075°12'0 1.5
2017-Sep-19 06:28N 39°54' W 075°12'1 2.2
2017-Sep-19 05:59N 39°55' W 075°13'164.5
2017-Sep-19 05:58N 39°54' W 075°12'0 0.1
2017-Sep-19 05:30N 39°54' W 075°12'0 1.3
2017-Sep-19 05:28N 39°54' W 075°12'0 0.1
2017-Sep-19 04:58N 39°54' W 075°12'0101.8
2017-Sep-19 04:58N 39°54' W 075°12'0 0.1
2017-Sep-19 04:28N 39°54' W 075°12'054.2
2017-Sep-19 04:28N 39°54' W 075°12'0 0.1
2017-Sep-19 03:58N 39°54' W 075°12'0108.4
2017-Sep-19 03:58N 39°54' W 075°12'0 0.1
2017-Sep-19 03:28N 39°54' W 075°12'0108.4
2017-Sep-19 03:28N 39°54' W 075°12'0 0.1
2017-Sep-19 02:58N 39°54' W 075°12'054.2
2017-Sep-19 02:58N 39°54' W 075°12'0 0.0
2017-Sep-19 02:28N 39°54' W 075°12'0 0.1
2017-Sep-19 01:58N 39°54' W 075°12'0108.4
2017-Sep-19 01:58N 39°54' W 075°12'0 0.0
2017-Sep-19 01:28N 39°54' W 075°12'0 0.1
2017-Sep-19 00:58N 39°54' W 075°12'054.2
2017-Sep-19 00:58N 39°54' W 075°12'0 0.0
2017-Sep-19 00:28N 39°54' W 075°12'0 0.0
2017-Sep-18 23:58N 39°54' W 075°12'0 0.1
2017-Sep-18 23:28N 39°54' W 075°12'0118.7
2017-Sep-18 23:28N 39°54' W 075°12'0 0.0
2017-Sep-18 22:58N 39°54' W 075°12'0 0.0
2017-Sep-18 22:28N 39°54' W 075°12'0 0.1
2017-Sep-18 21:58N 39°54' W 075°12'0 0.0
2017-Sep-18 21:30N 39°54' W 075°12'0 0.7
2017-Sep-18 21:28N 39°54' W 075°12'0 0.1
2017-Sep-18 21:00N 39°54' W 075°12'0 0.7
2017-Sep-18 20:58N 39°54' W 075°12'0 0.1
2017-Sep-18 20:30N 39°54' W 075°12'0 0.7
2017-Sep-18 20:28N 39°54' W 075°12'0 0.1
2017-Sep-18 20:01N 39°54' W 075°12'0 0.6
2017-Sep-18 19:58N 39°54' W 075°12'0 0.1
2017-Sep-18 19:30N 39°54' W 075°12'0 0.6
2017-Sep-18 19:28N 39°54' W 075°12'0 0.1
2017-Sep-18 19:01N 39°54' W 075°12'0 0.6
2017-Sep-18 18:58N 39°54' W 075°12'0 0.1
2017-Sep-18 18:31N 39°54' W 075°12'0 0.6
2017-Sep-18 18:28N 39°54' W 075°12'0 0.1
2017-Sep-18 18:00N 39°54' W 075°12'0 0.5
2017-Sep-18 17:58N 39°54' W 075°12'0 0.1
2017-Sep-18 17:31N 39°54' W 075°12'0 0.7
2017-Sep-18 17:28N 39°54' W 075°12'0 0.1
2017-Sep-18 17:01N 39°54' W 075°12'0 0.6
2017-Sep-18 16:58N 39°54' W 075°12'0 0.1
2017-Sep-18 16:30N 39°54' W 075°12'0 0.6
2017-Sep-18 16:28N 39°54' W 075°12'0 0.5
2017-Sep-18 16:00N 39°54' W 075°13'0 5.4
2017-Sep-18 15:58N 39°54' W 075°12'1 2.3
2017-Sep-18 15:30N 39°55' W 075°13'123.3
2017-Sep-18 15:28N 39°54' W 075°12'1 1.2
2017-Sep-18 15:00N 39°53' W 075°12'111.9
2017-Sep-18 14:58N 39°54' W 075°12'2 5.0
2017-Sep-18 14:30N 39°53' W 075°10'249.7
2017-Sep-18 14:28N 39°54' W 075°12'4 8.2
2017-Sep-18 14:00N 39°55' W 075°08'482.6
2017-Sep-18 13:58N 39°54' W 075°12'4 8.3
2017-Sep-18 13:30N 39°55' W 075°08'488.3
2017-Sep-18 13:28N 39°54' W 075°12'4 8.1
2017-Sep-18 13:00N 39°55' W 075°08'486.8
2017-Sep-18 12:58N 39°54' W 075°12'4 8.3
2017-Sep-18 12:30N 39°55' W 075°08'488.3
2017-Sep-18 12:28N 39°54' W 075°12'4 8.3
2017-Sep-18 12:00N 39°55' W 075°08'488.4
2017-Sep-18 11:58N 39°54' W 075°12'0 0.0
2017-Sep-18 11:28N 39°54' W 075°12'4505.1
2017-Sep-18 11:27N 39°55' W 075°08'0 0.0
2017-Sep-18 11:00N 39°55' W 075°08'441.0
2017-Sep-18 10:55N 39°54' W 075°12'4 9.3
2017-Sep-18 10:30N 39°55' W 075°08'489.2
2017-Sep-18 10:28N 39°54' W 075°12'4 8.3
2017-Sep-18 10:00N 39°55' W 075°08'489.3
2017-Sep-18 09:58N 39°54' W 075°12'4 8.4
2017-Sep-18 09:30N 39°55' W 075°08'484.3
2017-Sep-18 09:28N 39°54' W 075°12'4 8.3
2017-Sep-18 09:00N 39°55' W 075°08'485.4
2017-Sep-18 08:58N 39°54' W 075°12'4 8.3
2017-Sep-18 08:30N 39°55' W 075°08'484.9
2017-Sep-18 08:28N 39°54' W 075°12'4 8.4
2017-Sep-18 08:00N 39°55' W 075°08'482.3
2017-Sep-18 07:58N 39°54' W 075°12'4 8.3
2017-Sep-18 07:30N 39°55' W 075°08'483.2
2017-Sep-18 07:28N 39°54' W 075°12'4 8.3
2017-Sep-18 07:00N 39°55' W 075°08'484.0
2017-Sep-18 06:58N 39°54' W 075°12'4 8.3
2017-Sep-18 06:30N 39°55' W 075°08'482.9
2017-Sep-18 06:28N 39°54' W 075°12'4 8.2
2017-Sep-18 06:00N 39°55' W 075°08'482.1
2017-Sep-18 05:58N 39°54' W 075°12'4 8.3
2017-Sep-18 05:30N 39°55' W 075°08'482.7
2017-Sep-18 05:28N 39°54' W 075°12'4 8.3
2017-Sep-18 05:00N 39°55' W 075°08'483.3
2017-Sep-18 04:58N 39°54' W 075°12'4 8.4
2017-Sep-18 04:30N 39°55' W 075°08'482.4
2017-Sep-18 04:28N 39°54' W 075°12'4 8.3
2017-Sep-18 04:00N 39°55' W 075°08'483.7
2017-Sep-18 03:58N 39°54' W 075°12'1 2.1
2017-Sep-18 03:31N 39°53' W 075°12'44608.8
2017-Sep-18 03:30N 39°55' W 075°08'3 5.9
2017-Sep-18 03:00N 39°53' W 075°11'516747.0
2017-Sep-18 03:00N 39°51' W 075°16'0 0.1
2017-Sep-18 02:31N 39°51' W 075°16'11367.6
2017-Sep-18 02:30N 39°51' W 075°15'2 4.9
2017-Sep-18 02:01N 39°53' W 075°12'41592.5
2017-Sep-18 02:00N 39°51' W 075°16'2 5.0
2017-Sep-18 01:30N 39°52' W 075°13'21578.1
2017-Sep-18 01:30N 39°54' W 075°12'0 0.2
2017-Sep-18 01:00N 39°54' W 075°12'0 0.8
2017-Sep-18 00:58N 39°54' W 075°12'0 0.1
2017-Sep-18 00:30N 39°54' W 075°12'0 1.1
2017-Sep-18 00:28N 39°54' W 075°12'0 0.1
2017-Sep-18 00:00N 39°54' W 075°12'0 0.9
2017-Sep-17 23:58N 39°54' W 075°12'0 0.1
2017-Sep-17 23:30N 39°54' W 075°12'0 0.9
2017-Sep-17 23:28N 39°54' W 075°12'0 0.1
2017-Sep-17 23:00N 39°54' W 075°12'0 0.9
2017-Sep-17 22:58N 39°54' W 075°12'0 0.1
2017-Sep-17 22:30N 39°54' W 075°12'0 1.1
2017-Sep-17 22:28N 39°54' W 075°12'0 0.1
2017-Sep-17 22:00N 39°54' W 075°12'0 1.1
2017-Sep-17 21:58N 39°54' W 075°12'0 0.1
2017-Sep-17 21:30N 39°54' W 075°12'0 1.1
2017-Sep-17 21:28N 39°54' W 075°12'0 0.1
2017-Sep-17 21:00N 39°54' W 075°12'0 1.0
2017-Sep-17 20:58N 39°54' W 075°12'0 0.1
2017-Sep-17 20:30N 39°54' W 075°12'0 0.9
2017-Sep-17 20:28N 39°54' W 075°12'0 0.1
2017-Sep-17 20:00N 39°54' W 075°12'0 1.0
2017-Sep-17 19:58N 39°54' W 075°12'0 0.1
2017-Sep-17 19:30N 39°54' W 075°12'0 1.1
2017-Sep-17 19:28N 39°54' W 075°12'0 0.1
2017-Sep-17 19:00N 39°54' W 075°12'0 1.0
2017-Sep-17 18:58N 39°54' W 075°12'0 0.1
2017-Sep-17 18:30N 39°54' W 075°12'0 0.9
2017-Sep-17 18:28N 39°54' W 075°12'0 0.1
2017-Sep-17 18:00N 39°54' W 075°12'0 1.1
2017-Sep-17 17:58N 39°54' W 075°12'0 0.1
2017-Sep-17 17:30N 39°54' W 075°12'0 1.1
2017-Sep-17 17:28N 39°54' W 075°12'0 0.1
2017-Sep-17 17:00N 39°54' W 075°12'0 1.1
2017-Sep-17 16:58N 39°54' W 075°12'0 0.1
2017-Sep-17 16:30N 39°54' W 075°12'0 1.1
2017-Sep-17 16:28N 39°54' W 075°12'0 0.1
2017-Sep-17 16:00N 39°54' W 075°12'0 0.9
2017-Sep-17 15:58N 39°54' W 075°12'0 0.1
2017-Sep-17 15:30N 39°54' W 075°12'0 1.1
2017-Sep-17 15:28N 39°54' W 075°12'0 0.0
2017-Sep-17 14:58N 39°54' W 075°12'0 1.9
2017-Sep-17 14:57N 39°54' W 075°12'0 0.0
2017-Sep-17 14:30N 39°54' W 075°12'0 1.0
2017-Sep-17 14:28N 39°54' W 075°12'0 0.1
2017-Sep-17 14:00N 39°54' W 075°12'0 1.0
2017-Sep-17 13:58N 39°54' W 075°12'0 0.1
2017-Sep-17 13:30N 39°54' W 075°12'0 6.4
2017-Sep-17 13:29N 39°54' W 075°12'0 0.1
2017-Sep-17 13:00N 39°54' W 075°12'0 3.0
2017-Sep-17 13:00N 39°54' W 075°12'0 0.1
2017-Sep-17 12:30N 39°54' W 075°12'0 0.9
2017-Sep-17 12:27N 39°54' W 075°12'0 0.1
2017-Sep-17 12:00N 39°54' W 075°12'0 3.1
2017-Sep-17 12:00N 39°54' W 075°12'0 0.1
2017-Sep-17 11:30N 39°54' W 075°12'0 2.7
2017-Sep-17 11:30N 39°54' W 075°12'0 0.1
2017-Sep-17 11:00N 39°54' W 075°12'0 2.9
2017-Sep-17 11:00N 39°54' W 075°12'0 0.1
2017-Sep-17 10:30N 39°54' W 075°12'0 3.2
2017-Sep-17 10:30N 39°54' W 075°12'0 0.1
2017-Sep-17 10:00N 39°54' W 075°12'0 2.7
2017-Sep-17 10:00N 39°54' W 075°12'0 0.1
2017-Sep-17 09:30N 39°54' W 075°12'0 3.1
2017-Sep-17 09:30N 39°54' W 075°12'0 0.1
2017-Sep-17 09:00N 39°54' W 075°12'0 2.7
2017-Sep-17 09:00N 39°54' W 075°12'0 0.1
2017-Sep-17 08:30N 39°54' W 075°12'0 2.9
2017-Sep-17 08:30N 39°54' W 075°12'0 0.1
2017-Sep-17 08:00N 39°54' W 075°12'0 2.8
2017-Sep-17 08:00N 39°54' W 075°12'0 0.1
2017-Sep-17 07:30N 39°54' W 075°12'0 2.9
2017-Sep-17 07:30N 39°54' W 075°12'0 0.1
2017-Sep-17 07:00N 39°54' W 075°12'0 2.5
2017-Sep-17 07:00N 39°54' W 075°12'0 0.0
2017-Sep-17 06:30N 39°54' W 075°12'0 2.7
2017-Sep-17 06:30N 39°54' W 075°12'0 0.1
2017-Sep-17 06:00N 39°54' W 075°12'0 2.8
2017-Sep-17 06:00N 39°54' W 075°12'0 0.1
2017-Sep-17 05:30N 39°54' W 075°12'0 3.1
2017-Sep-17 05:30N 39°54' W 075°12'0 0.1
2017-Sep-17 05:00N 39°54' W 075°12'0 2.8
2017-Sep-17 05:00N 39°54' W 075°12'0 0.1
2017-Sep-17 04:30N 39°54' W 075°12'0 3.3
2017-Sep-17 04:30N 39°54' W 075°12'0 0.1
2017-Sep-17 04:00N 39°54' W 075°12'0 3.2
2017-Sep-17 04:00N 39°54' W 075°12'0 0.1
2017-Sep-17 03:30N 39°54' W 075°12'0 3.3
2017-Sep-17 03:30N 39°54' W 075°12'0 0.1
2017-Sep-17 03:00N 39°54' W 075°12'0 2.7
2017-Sep-17 03:00N 39°54' W 075°12'0 0.1
2017-Sep-17 02:30N 39°54' W 075°12'0 2.8
2017-Sep-17 02:30N 39°54' W 075°12'2 4.5
2017-Sep-17 02:01N 39°52' W 075°14'2139.2
2017-Sep-17 02:00N 39°54' W 075°12'4 8.2
2017-Sep-17 01:30N 39°51' W 075°16'4269.3
2017-Sep-17 01:30N 39°54' W 075°12'4 7.9
2017-Sep-17 01:00N 39°51' W 075°16'4283.5
2017-Sep-17 01:00N 39°54' W 075°12'2 3.2
2017-Sep-17 00:31N 39°52' W 075°13'2100.2
2017-Sep-17 00:30N 39°54' W 075°12'2 3.5
2017-Sep-17 00:00N 39°52' W 075°13'2120.7
2017-Sep-17 00:00N 39°54' W 075°12'2 3.5
2017-Sep-16 23:30N 39°52' W 075°13'2119.8
2017-Sep-16 23:30N 39°54' W 075°12'2 3.5
2017-Sep-16 23:00N 39°52' W 075°13'2118.2
2017-Sep-16 23:00N 39°54' W 075°12'2 3.5
2017-Sep-16 22:30N 39°52' W 075°13'2132.4
2017-Sep-16 22:30N 39°54' W 075°12'2 3.6
2017-Sep-16 22:01N 39°52' W 075°13'2113.1
2017-Sep-16 22:00N 39°54' W 075°12'2 3.7
2017-Sep-16 21:31N 39°52' W 075°13'2113.0
2017-Sep-16 21:30N 39°54' W 075°12'2 3.8
2017-Sep-16 21:01N 39°52' W 075°13'2121.1
2017-Sep-16 21:00N 39°54' W 075°12'2 3.7
2017-Sep-16 20:31N 39°52' W 075°13'26604.5
2017-Sep-16 20:30N 39°54' W 075°12'0 0.9
2017-Sep-16 20:00N 39°54' W 075°13'21293.4
2017-Sep-16 20:00N 39°52' W 075°13'3 5.5
2017-Sep-16 19:30N 39°55' W 075°13'31957.0
2017-Sep-16 19:30N 39°52' W 075°13'0 0.1
2017-Sep-16 19:01N 39°52' W 075°13'26715.9
2017-Sep-16 19:01N 39°54' W 075°12'2 3.7
2017-Sep-16 18:30N 39°52' W 075°13'256.6
2017-Sep-16 18:28N 39°54' W 075°12'2 3.9
2017-Sep-16 18:01N 39°52' W 075°13'221.6
2017-Sep-16 17:55N 39°54' W 075°12'2 4.3
2017-Sep-16 17:31N 39°52' W 075°13'252.2
2017-Sep-16 17:28N 39°54' W 075°12'2 3.8
2017-Sep-16 17:01N 39°52' W 075°13'251.8
2017-Sep-16 16:58N 39°54' W 075°12'2 3.8
2017-Sep-16 16:30N 39°52' W 075°13'255.2
2017-Sep-16 16:28N 39°54' W 075°12'2 3.8
2017-Sep-16 16:01N 39°52' W 075°13'251.3
2017-Sep-16 15:58N 39°54' W 075°12'2 3.6
2017-Sep-16 15:31N 39°52' W 075°13'250.0
2017-Sep-16 15:28N 39°54' W 075°12'2 3.6
2017-Sep-16 15:01N 39°52' W 075°13'248.8
2017-Sep-16 14:58N 39°54' W 075°12'2 3.6
2017-Sep-16 14:30N 39°52' W 075°13'252.0
2017-Sep-16 14:28N 39°54' W 075°12'2 3.6
2017-Sep-16 14:00N 39°52' W 075°13'249.8
2017-Sep-16 13:58N 39°54' W 075°12'2 3.6
2017-Sep-16 13:30N 39°52' W 075°13'249.8
2017-Sep-16 13:28N 39°54' W 075°12'2 3.6
2017-Sep-16 13:00N 39°52' W 075°13'251.8
2017-Sep-16 12:58N 39°54' W 075°12'2 3.6
2017-Sep-16 12:30N 39°52' W 075°13'250.2
2017-Sep-16 12:28N 39°54' W 075°12'2 3.6
2017-Sep-16 12:00N 39°52' W 075°13'249.8
2017-Sep-16 11:58N 39°54' W 075°12'2 3.6
2017-Sep-16 11:30N 39°52' W 075°13'250.3
2017-Sep-16 11:28N 39°54' W 075°12'1 2.1
2017-Sep-16 11:01N 39°55' W 075°13'31142.5
2017-Sep-16 11:00N 39°52' W 075°13'2 5.0
2017-Sep-16 10:31N 39°54' W 075°13'28967.4
2017-Sep-16 10:30N 39°52' W 075°13'0 0.1
2017-Sep-16 10:00N 39°52' W 075°13'11237.3
2017-Sep-16 10:00N 39°53' W 075°12'4 7.7
2017-Sep-16 09:31N 39°51' W 075°16'33023.3
2017-Sep-16 09:30N 39°52' W 075°13'0 0.0
2017-Sep-16 09:00N 39°52' W 075°13'62040.5
2017-Sep-16 09:00N 39°51' W 075°21'4 7.2
2017-Sep-16 08:31N 39°48' W 075°25'108680.8
2017-Sep-16 08:30N 39°52' W 075°13'1326.3
2017-Sep-16 08:01N 39°46' W 075°28'1315782.4
2017-Sep-16 08:00N 39°52' W 075°13'1632.1
2017-Sep-16 07:31N 39°43' W 075°30'1628873.2
2017-Sep-16 07:30N 39°52' W 075°13'1836.5
2017-Sep-16 07:01N 39°41' W 075°31'1832795.6
2017-Sep-16 07:00N 39°52' W 075°13'2142.8
2017-Sep-16 06:30N 39°38' W 075°34'2125672.1
2017-Sep-16 06:30N 39°52' W 075°13'0 0.0
2017-Sep-16 06:00N 39°52' W 075°13'2651.4
2017-Sep-16 05:31N 39°33' W 075°36'2623101.6
2017-Sep-16 05:30N 39°52' W 075°13'2958.0
2017-Sep-16 05:01N 39°33' W 075°41'2913016.0
2017-Sep-16 05:00N 39°52' W 075°13'3264.2
2017-Sep-16 04:30N 39°32' W 075°46'3257658.2
2017-Sep-16 04:30N 39°52' W 075°13'0 0.1
2017-Sep-16 04:00N 39°52' W 075°13'3517912.4
2017-Sep-16 04:00N 39°32' W 075°50'3 5.6
2017-Sep-16 03:31N 39°31' W 075°53'3819318.4
2017-Sep-16 03:30N 39°52' W 075°13'0 0.1
2017-Sep-16 03:00N 39°52' W 075°13'417809.9
2017-Sep-16 03:00N 39°29' W 075°57'4 7.4
2017-Sep-16 02:31N 39°26' W 076°00'4540340.3
2017-Sep-16 02:30N 39°52' W 075°13'4897.2
2017-Sep-16 02:01N 39°24' W 076°04'48174595.2
2017-Sep-16 02:01N 39°52' W 075°13'52104.3
2017-Sep-16 01:31N 39°22' W 076°08'5246924.0
2017-Sep-16 01:30N 39°52' W 075°13'56111.8
2017-Sep-16 01:01N 39°20' W 076°12'56100375.2
2017-Sep-16 01:00N 39°52' W 075°13'59118.0
2017-Sep-16 00:31N 39°17' W 076°14'59106122.2
2017-Sep-16 00:30N 39°52' W 075°13'0 0.0
2017-Sep-16 00:01N 39°52' W 075°13'6227886.3
2017-Sep-16 00:00N 39°13' W 076°15'62124.4
2017-Sep-15 23:30N 39°52' W 075°13'6629699.7
2017-Sep-15 23:30N 39°10' W 076°18'66132.7
2017-Sep-15 23:00N 39°52' W 075°13'699530.4
2017-Sep-15 23:00N 39°10' W 076°23'69139.8
2017-Sep-15 22:31N 39°52' W 075°13'719848.8
2017-Sep-15 22:30N 39°12' W 076°29'71144.4
2017-Sep-15 22:01N 39°52' W 075°13'7337691.5
2017-Sep-15 22:00N 39°13' W 076°34'73147.0
2017-Sep-15 21:31N 39°52' W 075°13'7438287.1
2017-Sep-15 21:30N 39°13' W 076°35'74149.1
2017-Sep-15 21:00N 39°52' W 075°13'742435.6
2017-Sep-15 20:59N 39°13' W 076°35'74158.9
2017-Sep-15 20:31N 39°52' W 075°13'742348.2
2017-Sep-15 20:29N 39°13' W 076°35'74158.1
2017-Sep-15 20:00N 39°52' W 075°13'742478.1
2017-Sep-15 19:59N 39°13' W 076°35'74158.8
2017-Sep-15 19:31N 39°52' W 075°13'742347.6
2017-Sep-15 19:29N 39°13' W 076°35'74158.6
2017-Sep-15 19:01N 39°52' W 075°13'742347.7
2017-Sep-15 18:59N 39°13' W 076°35'74158.9
2017-Sep-15 18:31N 39°52' W 075°13'742327.6
2017-Sep-15 18:29N 39°13' W 076°35'74158.8
2017-Sep-15 18:01N 39°52' W 075°13'742327.2
2017-Sep-15 17:59N 39°13' W 076°35'74158.2
2017-Sep-15 17:30N 39°52' W 075°13'742477.9
2017-Sep-15 17:29N 39°13' W 076°35'74158.3
2017-Sep-15 17:00N 39°52' W 075°13'742455.2
2017-Sep-15 16:59N 39°13' W 076°35'74158.2
2017-Sep-15 16:30N 39°52' W 075°13'742478.0
2017-Sep-15 16:29N 39°13' W 076°35'74158.3
2017-Sep-15 16:00N 39°52' W 075°13'742456.3
2017-Sep-15 15:59N 39°13' W 076°35'74158.9
2017-Sep-15 15:31N 39°52' W 075°13'742328.8
2017-Sep-15 15:29N 39°13' W 076°35'74158.7
2017-Sep-15 15:00N 39°52' W 075°13'742392.5
2017-Sep-15 14:59N 39°13' W 076°35'74159.0
2017-Sep-15 14:31N 39°52' W 075°13'742351.5
2017-Sep-15 14:29N 39°13' W 076°35'74159.1
2017-Sep-15 14:01N 39°52' W 075°13'742331.3
2017-Sep-15 13:59N 39°13' W 076°35'74158.5
2017-Sep-15 13:30N 39°52' W 075°13'742482.5
2017-Sep-15 13:29N 39°13' W 076°35'74158.9
2017-Sep-15 13:00N 39°52' W 075°13'742351.8
2017-Sep-15 12:59N 39°13' W 076°35'74159.0
2017-Sep-15 12:30N 39°52' W 075°13'742372.6
2017-Sep-15 12:29N 39°13' W 076°35'74158.9
2017-Sep-15 12:00N 39°52' W 075°13'7466816.6
2017-Sep-15 12:00N 39°13' W 076°35'74148.9
2017-Sep-15 11:31N 39°52' W 075°13'7243404.2
2017-Sep-15 11:30N 39°14' W 076°32'0 0.7
2017-Sep-15 11:01N 39°14' W 076°32'7264954.0
2017-Sep-15 11:00N 39°52' W 075°13'0 0.0
2017-Sep-15 10:30N 39°52' W 075°13'7264984.6
2017-Sep-15 10:30N 39°14' W 076°32'0 0.1
2017-Sep-15 10:01N 39°14' W 076°33'7232501.5
2017-Sep-15 10:00N 39°52' W 075°13'0 0.1
2017-Sep-15 09:30N 39°52' W 075°13'7286680.2
2017-Sep-15 09:30N 39°14' W 076°32'72144.6
2017-Sep-15 09:00N 39°52' W 075°13'7136724.6
2017-Sep-15 09:00N 39°12' W 076°29'71143.4
2017-Sep-15 08:30N 39°52' W 075°13'6962474.8
2017-Sep-15 08:30N 39°10' W 076°25'4 7.3
2017-Sep-15 08:01N 39°09' W 076°21'68121664.9
2017-Sep-15 08:00N 39°52' W 075°13'0 0.0
2017-Sep-15 07:30N 39°52' W 075°13'6577492.5
2017-Sep-15 07:30N 39°11' W 076°17'3 6.5
2017-Sep-15 07:01N 39°13' W 076°15'61221174.1
2017-Sep-15 07:00N 39°52' W 075°13'59118.4
2017-Sep-15 06:31N 39°16' W 076°14'5953170.2
2017-Sep-15 06:30N 39°52' W 075°13'0 0.0
2017-Sep-15 06:00N 39°52' W 075°13'5751006.2
2017-Sep-15 06:00N 39°19' W 076°13'3 6.0
2017-Sep-15 05:31N 39°21' W 076°10'54193287.5
2017-Sep-15 05:31N 39°52' W 075°13'0 0.0
2017-Sep-15 05:00N 39°52' W 075°13'5122734.2
2017-Sep-15 05:00N 39°23' W 076°06'51102.2
2017-Sep-15 04:31N 39°52' W 075°13'472423.9
2017-Sep-15 04:29N 39°24' W 076°03'4798.0
2017-Sep-15 04:01N 39°52' W 075°13'431132.5
2017-Sep-15 03:58N 39°27' W 075°59'4394.0
2017-Sep-15 03:31N 39°52' W 075°13'4020519.3
2017-Sep-15 03:30N 39°30' W 075°56'4080.2
2017-Sep-15 03:01N 39°52' W 075°13'364781.4
2017-Sep-15 03:00N 39°32' W 075°52'4 8.0
2017-Sep-15 02:31N 39°32' W 075°46'33117146.8
2017-Sep-15 02:31N 39°52' W 075°13'0 0.1
2017-Sep-15 02:01N 39°52' W 075°13'2920874.2
2017-Sep-15 02:00N 39°33' W 075°41'2958.2
2017-Sep-15 01:31N 39°52' W 075°13'2515220.8
2017-Sep-15 01:30N 39°33' W 075°35'2551.0
2017-Sep-15 01:01N 39°52' W 075°13'2310363.4
2017-Sep-15 01:00N 39°36' W 075°34'2346.2
2017-Sep-15 00:31N 39°52' W 075°13'2112363.0
2017-Sep-15 00:30N 39°39' W 075°33'2141.4
2017-Sep-15 00:01N 39°52' W 075°13'187286.9
2017-Sep-15 00:00N 39°41' W 075°31'3 6.4
2017-Sep-14 23:30N 39°44' W 075°30'1656403.4
2017-Sep-14 23:30N 39°52' W 075°13'0 0.0
2017-Sep-14 23:01N 39°52' W 075°13'135261.9
2017-Sep-14 23:00N 39°46' W 075°28'3 5.6
2017-Sep-14 22:30N 39°48' W 075°25'1037734.1
2017-Sep-14 22:30N 39°52' W 075°13'0 0.3
2017-Sep-14 22:01N 39°52' W 075°13'83918.0
2017-Sep-14 22:00N 39°50' W 075°22'714.0
2017-Sep-14 21:31N 39°52' W 075°14'53358.9
2017-Sep-14 21:30N 39°51' W 075°20'5 9.4
2017-Sep-14 21:01N 39°52' W 075°14'21388.6
2017-Sep-14 21:00N 39°51' W 075°16'2 3.9
2017-Sep-14 20:31N 39°52' W 075°14'21675.3
2017-Sep-14 20:30N 39°51' W 075°16'1 2.8
2017-Sep-14 20:00N 39°51' W 075°14'0782.0
2017-Sep-14 20:00N 39°52' W 075°14'0 0.1
2017-Sep-14 19:31N 39°52' W 075°14'24274.4
2017-Sep-14 19:30N 39°54' W 075°12'0 0.0
2017-Sep-14 19:01N 39°54' W 075°12'21440.6
2017-Sep-14 19:00N 39°52' W 075°14'0 0.0
2017-Sep-14 18:31N 39°51' W 075°14'28682.4
2017-Sep-14 18:31N 39°54' W 075°12'2 4.9
2017-Sep-14 18:00N 39°51' W 075°14'251.3
2017-Sep-14 17:58N 39°54' W 075°12'2 5.3
2017-Sep-14 17:31N 39°51' W 075°14'2 4.8
2017-Sep-14 17:01N 39°54' W 075°12'0 0.0
2017-Sep-14 16:31N 39°54' W 075°12'0 0.0
2017-Sep-14 16:01N 39°54' W 075°12'2 4.8
2017-Sep-14 15:31N 39°51' W 075°14'2 4.8
2017-Sep-14 15:01N 39°54' W 075°12'28441.8
2017-Sep-14 15:00N 39°52' W 075°14'2 4.7
2017-Sep-14 14:30N 39°54' W 075°12'28335.7
2017-Sep-14 14:30N 39°52' W 075°14'2 4.6
2017-Sep-14 14:01N 39°54' W 075°12'2 4.6
2017-Sep-14 13:30N 39°52' W 075°14'248.2
2017-Sep-14 13:28N 39°54' W 075°12'2 5.1
2017-Sep-14 13:00N 39°52' W 075°14'248.0
2017-Sep-14 12:58N 39°54' W 075°12'2 5.2
2017-Sep-14 12:30N 39°52' W 075°14'28413.4
2017-Sep-14 12:30N 39°54' W 075°12'0 0.0
2017-Sep-14 12:00N 39°54' W 075°12'24213.3
2017-Sep-14 12:00N 39°52' W 075°14'0 0.0
2017-Sep-14 11:30N 39°52' W 075°14'248.3
2017-Sep-14 11:28N 39°54' W 075°12'0 0.0
2017-Sep-14 11:00N 39°54' W 075°12'28413.4
2017-Sep-14 11:00N 39°52' W 075°14'0 0.0
2017-Sep-14 10:30N 39°52' W 075°14'248.4
2017-Sep-14 10:28N 39°54' W 075°12'2 5.2
2017-Sep-14 10:00N 39°52' W 075°14'28400.3
2017-Sep-14 10:00N 39°54' W 075°12'0 0.0
2017-Sep-14 09:30N 39°54' W 075°12'28413.7
2017-Sep-14 09:30N 39°52' W 075°14'0 0.0
2017-Sep-14 09:00N 39°52' W 075°14'24197.3
2017-Sep-14 09:00N 39°54' W 075°12'0 0.0
2017-Sep-14 08:30N 39°54' W 075°12'22107.0
2017-Sep-14 08:30N 39°52' W 075°14'2 4.7
2017-Sep-14 08:01N 39°54' W 075°12'22155.2
2017-Sep-14 08:00N 39°51' W 075°14'2 4.8
2017-Sep-14 07:31N 39°54' W 075°12'21108.2
2017-Sep-14 07:30N 39°51' W 075°14'0 0.0
2017-Sep-14 07:00N 39°51' W 075°14'250.2
2017-Sep-14 06:58N 39°54' W 075°12'2 5.5
2017-Sep-14 06:30N 39°51' W 075°14'24446.1
2017-Sep-14 06:30N 39°54' W 075°12'0 0.0
2017-Sep-14 06:00N 39°54' W 075°12'28865.6
2017-Sep-14 06:00N 39°51' W 075°14'0 0.0
2017-Sep-14 05:30N 39°51' W 075°14'24442.6
2017-Sep-14 05:30N 39°54' W 075°12'2 4.9
2017-Sep-14 05:00N 39°51' W 075°14'251.7
2017-Sep-14 04:58N 39°54' W 075°12'2 5.5
2017-Sep-14 04:30N 39°51' W 075°14'28885.2
2017-Sep-14 04:30N 39°54' W 075°12'2 4.9
2017-Sep-14 04:00N 39°51' W 075°14'22221.3
2017-Sep-14 04:00N 39°54' W 075°12'2 4.9
2017-Sep-14 03:30N 39°51' W 075°14'28872.6
2017-Sep-14 03:30N 39°54' W 075°12'2 4.9
2017-Sep-14 03:00N 39°51' W 075°14'24446.1
2017-Sep-14 03:00N 39°54' W 075°12'2 4.9
2017-Sep-14 02:30N 39°51' W 075°14'24432.8
2017-Sep-14 02:30N 39°54' W 075°12'2 4.9
2017-Sep-14 02:01N 39°51' W 075°14'250.6
2017-Sep-14 01:58N 39°54' W 075°12'2 5.3
2017-Sep-14 01:30N 39°51' W 075°14'28678.6
2017-Sep-14 01:30N 39°54' W 075°12'0 0.0
2017-Sep-14 01:00N 39°54' W 075°12'24253.4
2017-Sep-14 01:00N 39°52' W 075°14'0 0.1
2017-Sep-14 00:31N 39°52' W 075°14'22802.3
2017-Sep-14 00:30N 39°54' W 075°12'2 4.7
2017-Sep-14 00:00N 39°52' W 075°14'24206.7
2017-Sep-14 00:00N 39°54' W 075°12'0 0.0
2017-Sep-13 23:31N 39°54' W 075°12'24213.3
2017-Sep-13 23:30N 39°52' W 075°14'2 4.7
2017-Sep-13 23:01N 39°54' W 075°12'611.4
2017-Sep-13 22:30N 39°51' W 075°19'610282.6
2017-Sep-13 22:30N 39°54' W 075°12'0 0.0
2017-Sep-13 22:01N 39°54' W 075°12'1223.7
2017-Sep-13 21:31N 39°48' W 075°26'1242735.1
2017-Sep-13 21:30N 39°54' W 075°12'1531.0
2017-Sep-13 21:00N 39°45' W 075°29'1555742.4
2017-Sep-13 21:00N 39°54' W 075°12'1938.4
2017-Sep-13 20:30N 39°41' W 075°31'19377.6
2017-Sep-13 20:27N 39°54' W 075°12'2352.1
2017-Sep-13 20:00N 39°38' W 075°35'2384226.9
2017-Sep-13 20:00N 39°54' W 075°12'0 0.0
2017-Sep-13 19:31N 39°54' W 075°12'2545790.0
2017-Sep-13 19:30N 39°33' W 075°32'3 6.8
2017-Sep-13 19:01N 39°30' W 075°33'29287.7
2017-Sep-13 18:55N 39°54' W 075°12'3278.5
2017-Sep-13 18:30N 39°26' W 075°32'3256710.4
2017-Sep-13 18:30N 39°54' W 075°12'3367.0
2017-Sep-13 18:01N 39°22' W 075°28'33120352.7
2017-Sep-13 18:01N 39°54' W 075°12'3671.7
2017-Sep-13 17:31N 39°19' W 075°24'3643021.6
2017-Sep-13 17:30N 39°54' W 075°12'0 0.0
2017-Sep-13 17:01N 39°54' W 075°12'3969663.5
2017-Sep-13 17:00N 39°15' W 075°20'3977.5
2017-Sep-13 16:31N 39°54' W 075°12'42151511.9
2017-Sep-13 16:31N 39°12' W 075°17'5 9.6
2017-Sep-13 16:01N 39°08' W 075°13'46914.6
2017-Sep-13 15:58N 39°54' W 075°12'0 0.0
2017-Sep-13 15:30N 39°54' W 075°12'5019995.6
2017-Sep-13 15:30N 39°04' W 075°10'50100.4
2017-Sep-13 15:00N 39°54' W 075°12'56380.9
2017-Sep-13 14:52N 38°58' W 075°07'3 7.4
2017-Sep-13 14:30N 38°56' W 075°06'58104541.4
2017-Sep-13 14:30N 39°54' W 075°12'0 0.0
2017-Sep-13 13:58N 39°54' W 075°12'61678.0
2017-Sep-13 13:52N 38°53' W 075°07'61169.0
2017-Sep-13 13:30N 39°54' W 075°12'62224983.0
2017-Sep-13 13:30N 38°51' W 075°05'62124.9
2017-Sep-13 13:00N 39°54' W 075°12'661051.5
2017-Sep-13 12:57N 38°48' W 074°60'66151.2
2017-Sep-13 12:30N 39°54' W 075°12'6611938.3
2017-Sep-13 12:30N 38°49' W 074°54'66134.2
2017-Sep-13 12:00N 39°54' W 075°12'6519425.7
2017-Sep-13 12:00N 38°51' W 074°49'65130.5
2017-Sep-13 11:30N 39°54' W 075°12'626761.5
2017-Sep-13 11:30N 38°55' W 074°45'62126.1
2017-Sep-13 11:00N 39°54' W 075°12'6071467.9
2017-Sep-13 11:00N 38°59' W 074°41'60119.2
2017-Sep-13 10:30N 39°54' W 075°12'58207995.3
2017-Sep-13 10:30N 39°03' W 074°37'58115.6
2017-Sep-13 10:00N 39°54' W 075°12'55110.8
2017-Sep-13 09:30N 39°10' W 074°28'5599558.7
2017-Sep-13 09:30N 39°54' W 075°12'55109.3
2017-Sep-13 09:01N 39°14' W 074°24'5549096.7
2017-Sep-13 09:00N 39°54' W 075°12'54108.6
2017-Sep-13 08:31N 39°18' W 074°20'5448721.2
2017-Sep-13 08:30N 39°54' W 075°12'54107.8
2017-Sep-13 08:00N 39°21' W 074°16'5464601.2
2017-Sep-13 08:00N 39°54' W 075°12'54108.4
2017-Sep-13 07:31N 39°25' W 074°13'5464909.1
2017-Sep-13 07:30N 39°54' W 075°12'54107.9
2017-Sep-13 07:01N 39°30' W 074°10'541030.9
2017-Sep-13 06:57N 39°54' W 075°12'54120.2
2017-Sep-13 06:30N 39°34' W 074°07'5448510.9
2017-Sep-13 06:30N 39°54' W 075°12'55109.2
2017-Sep-13 06:00N 39°38' W 074°04'55196496.9
2017-Sep-13 06:00N 39°54' W 075°12'56112.4
2017-Sep-13 05:31N 39°43' W 074°01'5633598.8
2017-Sep-13 05:30N 39°54' W 075°12'57114.2
2017-Sep-13 05:00N 39°47' W 073°59'57102633.5
2017-Sep-13 05:00N 39°54' W 075°12'57114.8
2017-Sep-13 04:31N 39°52' W 073°58'571113.2
2017-Sep-13 04:27N 39°54' W 075°12'0 0.0
2017-Sep-13 04:00N 39°54' W 075°12'5820841.0
2017-Sep-13 04:00N 39°57' W 073°57'5 9.7
2017-Sep-13 03:30N 40°02' W 073°56'59212220.9
2017-Sep-13 03:30N 39°54' W 075°12'0 0.0
2017-Sep-13 03:01N 39°54' W 075°12'6036032.4
2017-Sep-13 03:00N 40°06' W 073°56'63125.6
2017-Sep-13 02:31N 39°51' W 075°15'642458.9
2017-Sep-13 02:29N 40°11' W 073°55'65137.0
2017-Sep-13 02:00N 39°51' W 075°16'6779842.6
2017-Sep-13 02:00N 40°16' W 073°55'64128.6
2017-Sep-13 01:31N 39°52' W 075°13'6639618.4
2017-Sep-13 01:30N 40°20' W 073°55'66132.2
2017-Sep-13 01:01N 39°52' W 075°13'683647.7
2017-Sep-13 00:59N 40°25' W 073°55'4 8.9
2017-Sep-13 00:30N 40°29' W 073°59'672855.7
2017-Sep-13 00:29N 39°52' W 075°13'64134.0
2017-Sep-13 00:00N 40°29' W 074°05'642606.3
2017-Sep-12 23:59N 39°52' W 075°13'61124.5
2017-Sep-12 23:29N 40°30' W 074°09'6111067.7
2017-Sep-12 23:29N 39°52' W 075°13'0 0.0
2017-Sep-12 22:59N 39°52' W 075°13'0 0.0
2017-Sep-12 22:29N 39°52' W 075°13'0 0.0
2017-Sep-12 21:59N 39°52' W 075°13'0 0.0
2017-Sep-12 21:29N 39°52' W 075°13'0 0.0
2017-Sep-12 20:59N 39°52' W 075°13'0 0.0
2017-Sep-12 20:29N 39°52' W 075°13'0 0.0
2017-Sep-12 19:59N 39°52' W 075°13'0 0.0
2017-Sep-12 19:29N 39°52' W 075°13'0 0.0
2017-Sep-12 18:59N 39°52' W 075°13'0 0.0
2017-Sep-12 18:29N 39°52' W 075°13'0 0.0
2017-Sep-12 17:59N 39°52' W 075°13'0 0.3
2017-Sep-12 17:29N 39°52' W 075°13'0 0.1
2017-Sep-12 16:59N 39°52' W 075°13'0 0.0
2017-Sep-12 16:29N 39°52' W 075°13'0 0.1
2017-Sep-12 15:59N 39°52' W 075°13'0 0.0
2017-Sep-12 15:29N 39°52' W 075°13'0 0.0
2017-Sep-12 14:59N 39°52' W 075°13'0 0.0
2017-Sep-12 14:26N 39°52' W 075°13'0 0.0
2017-Sep-12 13:56N 39°52' W 075°13'0 0.0
2017-Sep-12 13:29N 39°52' W 075°13'0 0.0
2017-Sep-12 12:59N 39°52' W 075°13'0 0.0
2017-Sep-12 09:14N 39°52' W 075°13'0 0.0
2017-Sep-12 08:59N 39°52' W 075°13'0 0.0
2017-Sep-12 08:26N 39°52' W 075°13'0 0.0
2017-Sep-12 07:59N 39°52' W 075°13'0 0.0
2017-Sep-12 07:29N 39°52' W 075°13'0 0.0
2017-Sep-12 06:59N 39°52' W 075°13'0 0.1
2017-Sep-12 06:29N 39°52' W 075°13'0 0.0
2017-Sep-12 05:59N 39°52' W 075°13'0 0.3
2017-Sep-12 05:29N 39°52' W 075°13'58496.8
2017-Sep-12 05:22N 40°29' W 074°14'3 7.3
2017-Sep-12 05:00N 40°30' W 074°11'612437.1
2017-Sep-12 04:59N 39°52' W 075°13'0 0.0
2017-Sep-12 04:29N 39°52' W 075°13'62313.2
2017-Sep-12 04:17N 40°29' W 074°08'0 0.0
2017-Sep-12 03:59N 40°29' W 074°08'6244721.7
2017-Sep-12 03:59N 39°52' W 075°13'0 0.0
2017-Sep-12 03:29N 39°52' W 075°13'0 0.0
2017-Sep-12 02:59N 39°52' W 075°13'0 0.0
2017-Sep-12 02:29N 39°52' W 075°13'0 0.0
2017-Sep-12 01:59N 39°52' W 075°13'0 0.0
2017-Sep-12 01:29N 39°52' W 075°13'0 0.0
2017-Sep-12 00:59N 39°52' W 075°13'0 0.0
2017-Sep-12 00:29N 39°52' W 075°13'0 0.0
2017-Sep-11 23:59N 39°52' W 075°13'0 0.2
2017-Sep-11 23:29N 39°52' W 075°13'0 0.2
2017-Sep-11 22:59N 39°52' W 075°13'0 0.1
2017-Sep-11 22:29N 39°52' W 075°13'0 0.0
2017-Sep-11 21:59N 39°52' W 075°13'0 0.0
2017-Sep-11 21:29N 39°52' W 075°13'0 0.0
2017-Sep-11 20:59N 39°52' W 075°13'2 3.5
2017-Sep-11 20:31N 39°54' W 075°12'0 0.5
2017-Sep-11 19:59N 39°54' W 075°12'0 0.0
2017-Sep-11 19:29N 39°54' W 075°12'0 0.0
2017-Sep-11 18:59N 39°54' W 075°12'0 0.0
2017-Sep-11 18:29N 39°54' W 075°12'0 0.0
2017-Sep-11 17:59N 39°54' W 075°12'0 0.0
2017-Sep-11 17:29N 39°54' W 075°12'0 0.0
2017-Sep-11 16:59N 39°54' W 075°12'60148.6
2017-Sep-11 16:35N 40°29' W 074°08'60640.8
2017-Sep-11 16:29N 39°54' W 075°12'0 0.0
2017-Sep-11 15:59N 39°54' W 075°12'60148.7
2017-Sep-11 15:35N 40°29' W 074°08'60638.4
2017-Sep-11 15:29N 39°54' W 075°12'6010334.6
2017-Sep-11 15:29N 40°29' W 074°08'62130.2
2017-Sep-11 15:00N 39°52' W 075°13'62278.4
2017-Sep-11 14:47N 40°29' W 074°08'0 0.0
2017-Sep-11 14:29N 40°29' W 074°08'622328.4
2017-Sep-11 14:27N 39°52' W 075°13'0 0.0
2017-Sep-11 14:00N 39°52' W 075°13'0 0.0
2017-Sep-11 13:30N 39°52' W 075°13'0 0.0
2017-Sep-11 12:57N 39°52' W 075°13'0 0.0
2017-Sep-11 12:30N 39°52' W 075°13'0 0.0
2017-Sep-11 12:00N 39°52' W 075°13'0 0.0
2017-Sep-11 11:30N 39°52' W 075°13'0 0.0
2017-Sep-11 11:00N 39°52' W 075°13'0 0.2
2017-Sep-11 10:30N 39°52' W 075°13'0 0.1
2017-Sep-11 10:00N 39°52' W 075°13'0 0.0
2017-Sep-11 09:30N 39°52' W 075°13'0 0.0
2017-Sep-11 08:57N 39°52' W 075°13'0 0.0
2017-Sep-11 08:30N 39°52' W 075°13'0 0.0
2017-Sep-11 08:00N 39°52' W 075°13'0 0.0
2017-Sep-11 07:30N 39°52' W 075°13'0 0.1
2017-Sep-11 07:00N 39°52' W 075°13'4 7.1
2017-Sep-11 06:31N 39°51' W 075°17'510.9
2017-Sep-11 06:01N 39°49' W 075°24'510.8
2017-Sep-11 05:30N 39°45' W 075°29'510.8
2017-Sep-11 05:00N 39°40' W 075°32'5 9.7
2017-Sep-11 04:31N 39°36' W 075°34'510.1
2017-Sep-11 04:01N 39°31' W 075°33'2 4.2
2017-Sep-11 03:31N 39°29' W 075°34'4 8.7
2017-Sep-11 03:01N 39°25' W 075°31'90721.5
2017-Sep-11 02:53N 40°29' W 074°08'91240.7
2017-Sep-11 02:30N 39°22' W 075°27'4 8.8
2017-Sep-11 02:01N 39°19' W 075°23'4 8.7
2017-Sep-11 01:30N 39°15' W 075°20'4 8.5
2017-Sep-11 01:00N 39°12' W 075°17'4 9.0
2017-Sep-11 00:30N 39°08' W 075°14'96296.9
2017-Sep-11 00:11N 40°29' W 074°08'97541.6
2017-Sep-11 00:00N 39°05' W 075°11'3 6.7
2017-Sep-10 23:30N 39°01' W 075°09'100576.5
2017-Sep-10 23:20N 40°29' W 074°08'0 0.3
2017-Sep-10 22:47N 40°29' W 074°08'0 0.0
2017-Sep-10 21:10N 40°29' W 074°08'1 0.7
2017-Sep-10 19:19N 40°29' W 074°06'2 6.7
2017-Sep-10 18:59N 40°29' W 074°03'3 5.3
2017-Sep-10 18:30N 40°29' W 073°60'5616.0
2017-Sep-10 15:01N 39°34' W 074°09'0 9.7
2017-Sep-10 15:00N 39°34' W 074°09'10 9.6
2017-Sep-10 13:59N 39°42' W 074°02'5 9.3
2017-Sep-10 13:30N 39°47' W 074°01'5 9.3
2017-Sep-10 13:00N 39°51' W 074°00'5 9.5
2017-Sep-10 12:29N 39°56' W 073°58'8 9.8
2017-Sep-10 11:42N 39°48' W 073°59'1 6.9
2017-Sep-10 11:30N 39°47' W 073°59'4 6.9
2017-Sep-10 10:59N 39°43' W 074°01'28178.7
2017-Sep-10 10:50N 40°11' W 073°55'3195.0
2017-Sep-10 10:30N 39°40' W 074°02'3 6.9
2017-Sep-10 10:00N 39°37' W 074°04'3 6.8
2017-Sep-10 09:30N 39°34' W 074°05'4 6.8
2017-Sep-10 08:58N 39°31' W 074°07'61178.0
2017-Sep-10 08:38N 40°31' W 073°59'2 9.6
2017-Sep-10 08:27N 40°32' W 074°01'511.0
2017-Sep-10 08:00N 40°36' W 074°03'510.0
2017-Sep-10 07:30N 40°41' W 074°02'510.5
2017-Sep-10 07:00N 40°46' W 074°00'5 9.7
2017-Sep-10 06:30N 40°51' W 073°57'5 8.9
2017-Sep-10 06:00N 40°55' W 073°55'12715.3
2017-Sep-09 21:41N 39°01' W 075°09'1 3.8
2017-Sep-09 21:26N 39°02' W 075°10'4 9.3
2017-Sep-09 21:00N 39°06' W 075°12'5 9.8
2017-Sep-09 20:30N 39°10' W 075°15'  

Dump ship's entire track history